<?xml version='1.0' encoding='UTF-8'?><gpx version="1.1" creator="JPX - https://github.com/jenetics/jpx" xmlns="http://www.topografix.com/GPX/1/1"><trk><trkseg><trkpt lat="43.42352265367595" lon="10.419189810606953"><ele>144.0</ele><time>2026-04-04T09:13:42.999Z</time></trkpt><trkpt lat="43.42359065968763" lon="10.419130035687463"><ele>144.0</ele><time>2026-04-04T09:13:43.999Z</time></trkpt><trkpt lat="43.42367629287819" lon="10.419080775351576"><ele>144.0</ele><time>2026-04-04T09:13:44.999Z</time></trkpt><trkpt lat="43.42375824591396" lon="10.418985552228799"><ele>144.0</ele><time>2026-04-04T09:13:45.999Z</time></trkpt><trkpt lat="43.423851768436506" lon="10.418965858805102"><ele>144.0</ele><time>2026-04-04T09:13:46.999Z</time></trkpt><trkpt lat="43.4239069868253" lon="10.418920990126336"><ele>144.0</ele><time>2026-04-04T09:13:47.999Z</time></trkpt><trkpt lat="43.423991954365896" lon="10.418965438694975"><ele>144.75</ele><time>2026-04-04T09:13:48.999Z</time></trkpt><trkpt lat="43.42408318208664" lon="10.419040599167364"><ele>145.5</ele><time>2026-04-04T09:13:49.999Z</time></trkpt><trkpt lat="43.424153226824224" lon="10.419133613118909"><ele>146.25</ele><time>2026-04-04T09:13:50.999Z</time></trkpt><trkpt lat="43.42426329441466" lon="10.419258157115689"><ele>147.0</ele><time>2026-04-04T09:13:51.999Z</time></trkpt><trkpt lat="43.42436837954155" lon="10.41940350796725"><ele>147.0</ele><time>2026-04-04T09:13:52.999Z</time></trkpt><trkpt lat="43.424467967058185" lon="10.41955885641053"><ele>147.0</ele><time>2026-04-04T09:13:53.999Z</time></trkpt><trkpt lat="43.42454903038941" lon="10.419693821971913"><ele>147.0</ele><time>2026-04-04T09:13:54.999Z</time></trkpt><trkpt lat="43.424626000593136" lon="10.419812299924153"><ele>147.0</ele><time>2026-04-04T09:13:55.999Z</time></trkpt><trkpt lat="43.42470873057562" lon="10.419916830909589"><ele>149.25</ele><time>2026-04-04T09:13:56.999Z</time></trkpt><trkpt lat="43.424821558953454" lon="10.419981184841406"><ele>151.5</ele><time>2026-04-04T09:13:57.999Z</time></trkpt><trkpt lat="43.42491682535954" lon="10.420060863016523"><ele>153.75</ele><time>2026-04-04T09:13:58.999Z</time></trkpt><trkpt lat="43.42498780368887" lon="10.420178656965883"><ele>156.0</ele><time>2026-04-04T09:13:59.999Z</time></trkpt><trkpt lat="43.42507388892858" lon="10.420295593762487"><ele>156.0</ele><time>2026-04-04T09:14:00.999Z</time></trkpt><trkpt lat="43.42516565848551" lon="10.420376622358768"><ele>156.0</ele><time>2026-04-04T09:14:01.999Z</time></trkpt><trkpt lat="43.425224219306415" lon="10.42044004626678"><ele>156.0</ele><time>2026-04-04T09:14:02.999Z</time></trkpt><trkpt lat="43.42528759087373" lon="10.420454631619895"><ele>156.0</ele><time>2026-04-04T09:14:03.999Z</time></trkpt><trkpt lat="43.425377833026104" lon="10.420516533256984"><ele>156.0</ele><time>2026-04-04T09:14:05.999Z</time></trkpt><trkpt lat="43.42546336840553" lon="10.420583505655513"><ele>156.0</ele><time>2026-04-04T09:14:07.999Z</time></trkpt><trkpt lat="43.4255312196548" lon="10.420622886717213"><ele>159.25</ele><time>2026-04-04T09:14:08.999Z</time></trkpt><trkpt lat="43.42560303954265" lon="10.420585576819994"><ele>162.5</ele><time>2026-04-04T09:14:09.999Z</time></trkpt><trkpt lat="43.425676710511816" lon="10.420576394451185"><ele>165.75</ele><time>2026-04-04T09:14:11.999Z</time></trkpt><trkpt lat="43.42592686478982" lon="10.420701112454383"><ele>169.0</ele><time>2026-04-04T09:14:24.998Z</time></trkpt><trkpt lat="43.42597611899685" lon="10.42076664264316"><ele>169.0</ele><time>2026-04-04T09:14:27.998Z</time></trkpt><trkpt lat="43.42601515096149" lon="10.420836510447742"><ele>169.0</ele><time>2026-04-04T09:14:30.998Z</time></trkpt><trkpt lat="43.426075551766466" lon="10.420902677866291"><ele>169.0</ele><time>2026-04-04T09:14:33.998Z</time></trkpt><trkpt lat="43.42615796258628" lon="10.420917316267513"><ele>169.0</ele><time>2026-04-04T09:14:36.998Z</time></trkpt><trkpt lat="43.42623118425819" lon="10.420882652336333"><ele>169.0</ele><time>2026-04-04T09:14:39.998Z</time></trkpt><trkpt lat="43.42630645142518" lon="10.420863877670246"><ele>169.0</ele><time>2026-04-04T09:14:43.998Z</time></trkpt><trkpt lat="43.42637250984812" lon="10.420812432561792"><ele>171.83333333333334</ele><time>2026-04-04T09:14:48.998Z</time></trkpt><trkpt lat="43.42641840970705" lon="10.420750522569616"><ele>174.66666666666669</ele><time>2026-04-04T09:16:20.999Z</time></trkpt><trkpt lat="43.42644138177857" lon="10.420666732082475"><ele>177.5</ele><time>2026-04-04T09:16:42.998Z</time></trkpt><trkpt lat="43.42650515108835" lon="10.420562328618576"><ele>180.33333333333334</ele><time>2026-04-04T09:16:45.998Z</time></trkpt><trkpt lat="43.4265920075496" lon="10.420541602131099"><ele>183.16666666666666</ele><time>2026-04-04T09:16:47.998Z</time></trkpt><trkpt lat="43.4266633014438" lon="10.420540943230543"><ele>186.0</ele><time>2026-04-04T09:16:49.998Z</time></trkpt><trkpt lat="43.42673602785287" lon="10.420584286840798"><ele>186.0</ele><time>2026-04-04T09:16:51.998Z</time></trkpt><trkpt lat="43.426829266958975" lon="10.420554362621381"><ele>186.0</ele><time>2026-04-04T09:16:53.998Z</time></trkpt><trkpt lat="43.42683353919118" lon="10.420681982155765"><ele>186.0</ele><time>2026-04-04T09:16:55.998Z</time></trkpt><trkpt lat="43.42684453648433" lon="10.42080161876911"><ele>186.0</ele><time>2026-04-04T09:16:56.998Z</time></trkpt><trkpt lat="43.42687641323439" lon="10.420942491198998"><ele>186.0</ele><time>2026-04-04T09:16:57.998Z</time></trkpt><trkpt lat="43.4269048306785" lon="10.42105016603098"><ele>186.0</ele><time>2026-04-04T09:16:58.998Z</time></trkpt><trkpt lat="43.4269241645211" lon="10.421153636582668"><ele>186.0</ele><time>2026-04-04T09:16:59.998Z</time></trkpt><trkpt lat="43.4269367310373" lon="10.421253050055245"><ele>186.0</ele><time>2026-04-04T09:17:00.998Z</time></trkpt><trkpt lat="43.426937062409905" lon="10.421402554093088"><ele>186.0</ele><time>2026-04-04T09:17:02.998Z</time></trkpt><trkpt lat="43.42694226792784" lon="10.421503991147496"><ele>186.0</ele><time>2026-04-04T09:17:04.998Z</time></trkpt><trkpt lat="43.42698233254517" lon="10.42158111334924"><ele>186.0</ele><time>2026-04-04T09:17:12.998Z</time></trkpt><trkpt lat="43.427010989207034" lon="10.421699597682537"><ele>186.83333333333334</ele><time>2026-04-04T09:17:14.997Z</time></trkpt><trkpt lat="43.427043368605766" lon="10.421818207621854"><ele>187.66666666666666</ele><time>2026-04-04T09:17:16.997Z</time></trkpt><trkpt lat="43.42705270403758" lon="10.421918555103034"><ele>188.5</ele><time>2026-04-04T09:17:18.997Z</time></trkpt><trkpt lat="43.427078182129556" lon="10.422012896188422"><ele>189.33333333333331</ele><time>2026-04-04T09:17:21Z</time></trkpt><trkpt lat="43.42712793227255" lon="10.422080680845536"><ele>190.16666666666666</ele><time>2026-04-04T09:17:23Z</time></trkpt><trkpt lat="43.42715079371997" lon="10.422173128044347"><ele>191.0</ele><time>2026-04-04T09:17:30Z</time></trkpt><trkpt lat="43.42718768671848" lon="10.422277218271473"><ele>196.0</ele><time>2026-04-04T09:17:32Z</time></trkpt><trkpt lat="43.42721193935053" lon="10.422384178413699"><ele>201.0</ele><time>2026-04-04T09:17:33Z</time></trkpt><trkpt lat="43.42723413022729" lon="10.422530009637656"><ele>206.0</ele><time>2026-04-04T09:17:35Z</time></trkpt><trkpt lat="43.42728458031037" lon="10.422677045928111"><ele>211.0</ele><time>2026-04-04T09:17:37Z</time></trkpt><trkpt lat="43.427345917292435" lon="10.422871475158168"><ele>212.60000000000002</ele><time>2026-04-04T09:17:39Z</time></trkpt><trkpt lat="43.4273894211051" lon="10.422998580971647"><ele>214.2</ele><time>2026-04-04T09:17:40Z</time></trkpt><trkpt lat="43.42741774419661" lon="10.42308609267452"><ele>215.79999999999998</ele><time>2026-04-04T09:17:41Z</time></trkpt><trkpt lat="43.427490475666005" lon="10.423194392141525"><ele>217.39999999999998</ele><time>2026-04-04T09:17:43Z</time></trkpt><trkpt lat="43.427575796385554" lon="10.42328114349124"><ele>219.0</ele><time>2026-04-04T09:17:45Z</time></trkpt><trkpt lat="43.42784560525081" lon="10.423611820957575"><ele>218.33333333333331</ele><time>2026-04-04T09:17:47.999Z</time></trkpt><trkpt lat="43.427980819992555" lon="10.423737197953772"><ele>217.66666666666666</ele><time>2026-04-04T09:17:48.999Z</time></trkpt><trkpt lat="43.428124051378674" lon="10.423881954804234"><ele>217.0</ele><time>2026-04-04T09:17:49.999Z</time></trkpt><trkpt lat="43.42825440000871" lon="10.42400117043203"><ele>220.5</ele><time>2026-04-04T09:17:50.999Z</time></trkpt><trkpt lat="43.42835560470661" lon="10.42411757044515"><ele>224.0</ele><time>2026-04-04T09:17:51.999Z</time></trkpt><trkpt lat="43.42844970157799" lon="10.424232580309633"><ele>227.5</ele><time>2026-04-04T09:17:52.999Z</time></trkpt><trkpt lat="43.42853945136865" lon="10.424371985946243"><ele>231.0</ele><time>2026-04-04T09:17:53.999Z</time></trkpt><trkpt lat="43.42862213983901" lon="10.424521161458655"><ele>233.25</ele><time>2026-04-04T09:17:54.999Z</time></trkpt><trkpt lat="43.428702325625615" lon="10.424686095857261"><ele>235.5</ele><time>2026-04-04T09:17:55.999Z</time></trkpt><trkpt lat="43.42875180547328" lon="10.424870338465293"><ele>237.75</ele><time>2026-04-04T09:17:56.999Z</time></trkpt><trkpt lat="43.42881054315502" lon="10.425028501791553"><ele>240.0</ele><time>2026-04-04T09:17:57.999Z</time></trkpt><trkpt lat="43.42887667992401" lon="10.425126463074536"><ele>240.0</ele><time>2026-04-04T09:17:58.999Z</time></trkpt><trkpt lat="43.42894780395862" lon="10.425221806132434"><ele>240.0</ele><time>2026-04-04T09:17:59.999Z</time></trkpt><trkpt lat="43.42899556064828" lon="10.425310926084336"><ele>240.0</ele><time>2026-04-04T09:18:00.999Z</time></trkpt><trkpt lat="43.42902843323367" lon="10.425423660816893"><ele>240.0</ele><time>2026-04-04T09:18:01.999Z</time></trkpt><trkpt lat="43.4290218268755" lon="10.425546238978804"><ele>240.0</ele><time>2026-04-04T09:18:02.999Z</time></trkpt><trkpt lat="43.42903019474907" lon="10.42569196227963"><ele>242.8</ele><time>2026-04-04T09:18:03.999Z</time></trkpt><trkpt lat="43.42906809436777" lon="10.425835495941094"><ele>245.6</ele><time>2026-04-04T09:18:04.999Z</time></trkpt><trkpt lat="43.42912710872397" lon="10.425952282419797"><ele>248.39999999999998</ele><time>2026-04-04T09:18:05.999Z</time></trkpt><trkpt lat="43.429181113175915" lon="10.42607610511558"><ele>251.2</ele><time>2026-04-04T09:18:06.999Z</time></trkpt><trkpt lat="43.42926733752956" lon="10.426174972358123"><ele>254.0</ele><time>2026-04-04T09:18:07.999Z</time></trkpt><trkpt lat="43.42936055641169" lon="10.426246302948282"><ele>254.0</ele><time>2026-04-04T09:18:08.999Z</time></trkpt><trkpt lat="43.42950774659621" lon="10.426262852519127"><ele>254.0</ele><time>2026-04-04T09:18:09.999Z</time></trkpt><trkpt lat="43.42966474237719" lon="10.426314655608703"><ele>254.0</ele><time>2026-04-04T09:18:10.999Z</time></trkpt><trkpt lat="43.42979423935493" lon="10.426388129863643"><ele>254.0</ele><time>2026-04-04T09:18:11.999Z</time></trkpt><trkpt lat="43.429886529315596" lon="10.426537005594408"><ele>256.5</ele><time>2026-04-04T09:18:12.999Z</time></trkpt><trkpt lat="43.4299757707588" lon="10.426677623547839"><ele>259.0</ele><time>2026-04-04T09:18:13.999Z</time></trkpt><trkpt lat="43.43006752247519" lon="10.426775533056203"><ele>261.5</ele><time>2026-04-04T09:18:14.999Z</time></trkpt><trkpt lat="43.43016872955541" lon="10.426800431569802"><ele>264.0</ele><time>2026-04-04T09:18:15.999Z</time></trkpt><trkpt lat="43.430283998042505" lon="10.426814173216624"><ele>264.0</ele><time>2026-04-04T09:18:16.999Z</time></trkpt><trkpt lat="43.43038902681731" lon="10.42684201242008"><ele>264.0</ele><time>2026-04-04T09:18:17.999Z</time></trkpt><trkpt lat="43.430467019231116" lon="10.426896098561713"><ele>264.0</ele><time>2026-04-04T09:18:18.999Z</time></trkpt><trkpt lat="43.430500813269845" lon="10.426984191511472"><ele>264.0</ele><time>2026-04-04T09:18:19.999Z</time></trkpt><trkpt lat="43.43051523418211" lon="10.427108758321449"><ele>264.0</ele><time>2026-04-04T09:18:20.999Z</time></trkpt><trkpt lat="43.43049279073435" lon="10.427309015868774"><ele>265.0</ele><time>2026-04-04T09:18:21.999Z</time></trkpt><trkpt lat="43.43046290542729" lon="10.42751778910653"><ele>266.0</ele><time>2026-04-04T09:18:22.999Z</time></trkpt><trkpt lat="43.43045760181219" lon="10.427739620626348"><ele>267.0</ele><time>2026-04-04T09:18:23.999Z</time></trkpt><trkpt lat="43.43047502089468" lon="10.427900790225163"><ele>268.0</ele><time>2026-04-04T09:18:24.999Z</time></trkpt><trkpt lat="43.430504584655125" lon="10.428024096388073"><ele>270.0</ele><time>2026-04-04T09:18:25.999Z</time></trkpt><trkpt lat="43.43054264864256" lon="10.428154066945408"><ele>272.0</ele><time>2026-04-04T09:18:26.999Z</time></trkpt><trkpt lat="43.43058271950452" lon="10.428242596107705"><ele>274.0</ele><time>2026-04-04T09:18:27.999Z</time></trkpt><trkpt lat="43.430658801873044" lon="10.428305801513782"><ele>276.0</ele><time>2026-04-04T09:18:28.999Z</time></trkpt><trkpt lat="43.43074813441777" lon="10.428322587725237"><ele>278.0</ele><time>2026-04-04T09:18:29.999Z</time></trkpt><trkpt lat="43.43086267038335" lon="10.428306231013007"><ele>278.0</ele><time>2026-04-04T09:18:30.999Z</time></trkpt><trkpt lat="43.43097890953977" lon="10.428298987937652"><ele>278.0</ele><time>2026-04-04T09:18:31.999Z</time></trkpt><trkpt lat="43.43107449036026" lon="10.42833328455151"><ele>278.0</ele><time>2026-04-04T09:18:32.999Z</time></trkpt><trkpt lat="43.43116525085444" lon="10.428400958500069"><ele>278.0</ele><time>2026-04-04T09:18:33.999Z</time></trkpt><trkpt lat="43.431242890750895" lon="10.428450784501177"><ele>278.0</ele><time>2026-04-04T09:18:34.998Z</time></trkpt><trkpt lat="43.431317036421355" lon="10.428478563060388"><ele>278.8</ele><time>2026-04-04T09:18:35.998Z</time></trkpt><trkpt lat="43.431399856399366" lon="10.428530367492876"><ele>279.6</ele><time>2026-04-04T09:18:36.998Z</time></trkpt><trkpt lat="43.431458309655035" lon="10.428620375560584"><ele>280.4</ele><time>2026-04-04T09:18:37.998Z</time></trkpt><trkpt lat="43.4314161129664" lon="10.428785563069633"><ele>281.2</ele><time>2026-04-04T09:19:17.998Z</time></trkpt><trkpt lat="43.43149434206786" lon="10.428910918257971"><ele>282.0</ele><time>2026-04-04T09:19:19.997Z</time></trkpt><trkpt lat="43.43153341880328" lon="10.429024657804222"><ele>284.0</ele><time>2026-04-04T09:19:21.997Z</time></trkpt><trkpt lat="43.43152153439044" lon="10.429114080824139"><ele>286.0</ele><time>2026-04-04T09:19:23.997Z</time></trkpt><trkpt lat="43.43155227524739" lon="10.429297966210807"><ele>288.0</ele><time>2026-04-04T09:19:33Z</time></trkpt><trkpt lat="43.431563069940076" lon="10.429459917599365"><ele>290.0</ele><time>2026-04-04T09:19:34Z</time></trkpt><trkpt lat="43.43157326255686" lon="10.429642435977179"><ele>290.0</ele><time>2026-04-04T09:19:35Z</time></trkpt><trkpt lat="43.43160424654198" lon="10.429813564227713"><ele>290.0</ele><time>2026-04-04T09:19:36Z</time></trkpt><trkpt lat="43.43166464165919" lon="10.429958286768766"><ele>290.0</ele><time>2026-04-04T09:19:37Z</time></trkpt><trkpt lat="43.43175460291947" lon="10.430069672932376"><ele>290.0</ele><time>2026-04-04T09:19:38Z</time></trkpt><trkpt lat="43.43185628103488" lon="10.430173007822402"><ele>290.0</ele><time>2026-04-04T09:19:39Z</time></trkpt><trkpt lat="43.431974089387545" lon="10.430265912936878"><ele>290.0</ele><time>2026-04-04T09:19:40Z</time></trkpt><trkpt lat="43.43208480732229" lon="10.4303489117169"><ele>290.0</ele><time>2026-04-04T09:19:41Z</time></trkpt><trkpt lat="43.432155126662046" lon="10.430422499548822"><ele>290.0</ele><time>2026-04-04T09:19:42Z</time></trkpt><trkpt lat="43.4322230814659" lon="10.430545853077193"><ele>294.0</ele><time>2026-04-04T09:19:43Z</time></trkpt><trkpt lat="43.43229392300104" lon="10.430686558353594"><ele>298.0</ele><time>2026-04-04T09:19:44Z</time></trkpt><trkpt lat="43.43237708453685" lon="10.430837912484854"><ele>302.0</ele><time>2026-04-04T09:19:45Z</time></trkpt><trkpt lat="43.4324354159353" lon="10.4310102835401"><ele>306.0</ele><time>2026-04-04T09:19:46Z</time></trkpt><trkpt lat="43.43250782136871" lon="10.431185981499759"><ele>303.8</ele><time>2026-04-04T09:19:47Z</time></trkpt><trkpt lat="43.43256079047708" lon="10.431362196607807"><ele>301.6</ele><time>2026-04-04T09:19:48Z</time></trkpt><trkpt lat="43.43261916459412" lon="10.43150992174183"><ele>299.4</ele><time>2026-04-04T09:19:49Z</time></trkpt><trkpt lat="43.43263824116035" lon="10.431631478132768"><ele>297.2</ele><time>2026-04-04T09:19:50Z</time></trkpt><trkpt lat="43.43268983682611" lon="10.431744813398995"><ele>295.0</ele><time>2026-04-04T09:19:51Z</time></trkpt><trkpt lat="43.432795918316266" lon="10.431824018567681"><ele>295.0</ele><time>2026-04-04T09:19:52Z</time></trkpt><trkpt lat="43.432925717116284" lon="10.431881168737126"><ele>295.0</ele><time>2026-04-04T09:19:53Z</time></trkpt><trkpt lat="43.43305375164019" lon="10.431922375016029"><ele>295.0</ele><time>2026-04-04T09:19:54Z</time></trkpt><trkpt lat="43.433135373442965" lon="10.432018578400639"><ele>295.0</ele><time>2026-04-04T09:19:54.999Z</time></trkpt><trkpt lat="43.43319573137965" lon="10.43211002610446"><ele>296.6</ele><time>2026-04-04T09:19:55.999Z</time></trkpt><trkpt lat="43.433254218423556" lon="10.43219684214645"><ele>298.2</ele><time>2026-04-04T09:19:56.999Z</time></trkpt><trkpt lat="43.43332705908481" lon="10.43230787311303"><ele>299.8</ele><time>2026-04-04T09:19:57.999Z</time></trkpt><trkpt lat="43.4334186792352" lon="10.432415253943306"><ele>301.4</ele><time>2026-04-04T09:19:58.999Z</time></trkpt><trkpt lat="43.433493377875756" lon="10.432561037017912"><ele>303.0</ele><time>2026-04-04T09:19:59.999Z</time></trkpt><trkpt lat="43.43359900910825" lon="10.432696266665365"><ele>303.0</ele><time>2026-04-04T09:20:00.999Z</time></trkpt><trkpt lat="43.43373173390716" lon="10.432791780433607"><ele>303.0</ele><time>2026-04-04T09:20:01.999Z</time></trkpt><trkpt lat="43.43383467358763" lon="10.432902938810438"><ele>303.0</ele><time>2026-04-04T09:20:02.999Z</time></trkpt><trkpt lat="43.43390554833653" lon="10.433006158086886"><ele>303.0</ele><time>2026-04-04T09:20:03.999Z</time></trkpt><trkpt lat="43.43400099110465" lon="10.433141657950891"><ele>303.0</ele><time>2026-04-04T09:20:04.999Z</time></trkpt><trkpt lat="43.43407801790039" lon="10.433236352926018"><ele>303.0</ele><time>2026-04-04T09:20:05.999Z</time></trkpt><trkpt lat="43.43415487524732" lon="10.43331053796203"><ele>303.0</ele><time>2026-04-04T09:20:06.999Z</time></trkpt><trkpt lat="43.43426633699315" lon="10.433337378997713"><ele>303.0</ele><time>2026-04-04T09:20:07.999Z</time></trkpt><trkpt lat="43.43438730438471" lon="10.43336297576427"><ele>303.0</ele><time>2026-04-04T09:20:08.999Z</time></trkpt><trkpt lat="43.43449399418272" lon="10.433394403157546"><ele>303.0</ele><time>2026-04-04T09:20:09.999Z</time></trkpt><trkpt lat="43.43456847490209" lon="10.433497379861151"><ele>303.0</ele><time>2026-04-04T09:20:10.999Z</time></trkpt><trkpt lat="43.43465947831233" lon="10.433592311823475"><ele>303.0</ele><time>2026-04-04T09:20:11.999Z</time></trkpt><trkpt lat="43.43476386523464" lon="10.4337063072544"><ele>303.0</ele><time>2026-04-04T09:20:12.999Z</time></trkpt><trkpt lat="43.434889184654956" lon="10.433835660641076"><ele>303.75</ele><time>2026-04-04T09:20:13.999Z</time></trkpt><trkpt lat="43.43500989031182" lon="10.433950077977187"><ele>304.5</ele><time>2026-04-04T09:20:14.999Z</time></trkpt><trkpt lat="43.435123810564356" lon="10.434021048610045"><ele>305.25</ele><time>2026-04-04T09:20:15.999Z</time></trkpt><trkpt lat="43.43524881783845" lon="10.434109302761481"><ele>306.0</ele><time>2026-04-04T09:20:16.999Z</time></trkpt><trkpt lat="43.435389629031576" lon="10.434173144400162"><ele>307.75</ele><time>2026-04-04T09:20:17.999Z</time></trkpt><trkpt lat="43.43553171008464" lon="10.434233114415958"><ele>309.5</ele><time>2026-04-04T09:20:18.999Z</time></trkpt><trkpt lat="43.43565390975487" lon="10.434288131422543"><ele>311.25</ele><time>2026-04-04T09:20:19.999Z</time></trkpt><trkpt lat="43.435760636589976" lon="10.434330748150238"><ele>313.0</ele><time>2026-04-04T09:20:20.999Z</time></trkpt><trkpt lat="43.43587495685887" lon="10.43435932691013"><ele>313.0</ele><time>2026-04-04T09:20:21.999Z</time></trkpt><trkpt lat="43.436000709529225" lon="10.434342563590137"><ele>313.0</ele><time>2026-04-04T09:20:22.999Z</time></trkpt><trkpt lat="43.436112731558644" lon="10.434371583956763"><ele>313.0</ele><time>2026-04-04T09:20:23.999Z</time></trkpt><trkpt lat="43.43623356736675" lon="10.434417930366791"><ele>313.0</ele><time>2026-04-04T09:20:24.999Z</time></trkpt><trkpt lat="43.436354361764714" lon="10.434420230765447"><ele>313.0</ele><time>2026-04-04T09:20:25.999Z</time></trkpt><trkpt lat="43.43643770075888" lon="10.434443476296014"><ele>313.0</ele><time>2026-04-04T09:20:26.999Z</time></trkpt><trkpt lat="43.43657854995428" lon="10.434460172553086"><ele>313.0</ele><time>2026-04-04T09:20:28.999Z</time></trkpt><trkpt lat="43.436668772557354" lon="10.434455115507706"><ele>313.0</ele><time>2026-04-04T09:20:29.999Z</time></trkpt><trkpt lat="43.436784008725205" lon="10.434440982683327"><ele>313.0</ele><time>2026-04-04T09:20:30.999Z</time></trkpt><trkpt lat="43.43705837525961" lon="10.434417286994337"><ele>311.0</ele><time>2026-04-04T09:20:31.999Z</time></trkpt><trkpt lat="43.437205800263506" lon="10.434274349462529"><ele>309.0</ele><time>2026-04-04T09:20:32.999Z</time></trkpt><trkpt lat="43.43728068109363" lon="10.434221579656791"><ele>307.0</ele><time>2026-04-04T09:20:33.999Z</time></trkpt><trkpt lat="43.43733136473261" lon="10.433808256407758"><ele>310.25</ele><time>2026-04-04T09:20:35.999Z</time></trkpt><trkpt lat="43.43745173145528" lon="10.433792601677023"><ele>313.5</ele><time>2026-04-04T09:20:36.999Z</time></trkpt><trkpt lat="43.43756536095937" lon="10.433757486866726"><ele>316.75</ele><time>2026-04-04T09:20:37.999Z</time></trkpt><trkpt lat="43.437669732399264" lon="10.433731994443487"><ele>320.0</ele><time>2026-04-04T09:20:38.999Z</time></trkpt><trkpt lat="43.437787365451626" lon="10.43371620305906"><ele>320.0</ele><time>2026-04-04T09:20:39.998Z</time></trkpt><trkpt lat="43.43788397679323" lon="10.433700745776454"><ele>320.0</ele><time>2026-04-04T09:20:40.998Z</time></trkpt><trkpt lat="43.43797119262554" lon="10.43368486419177"><ele>320.0</ele><time>2026-04-04T09:20:41.998Z</time></trkpt><trkpt lat="43.43806152830709" lon="10.43372504754029"><ele>320.0</ele><time>2026-04-04T09:20:42.998Z</time></trkpt><trkpt lat="43.43817176765295" lon="10.433754002567582"><ele>320.0</ele><time>2026-04-04T09:20:43.998Z</time></trkpt><trkpt lat="43.438289855263335" lon="10.433771282752065"><ele>320.0</ele><time>2026-04-04T09:20:44.998Z</time></trkpt><trkpt lat="43.438377416280105" lon="10.433798840375484"><ele>320.0</ele><time>2026-04-04T09:20:45.998Z</time></trkpt><trkpt lat="43.43846682156154" lon="10.433809680443034"><ele>320.0</ele><time>2026-04-04T09:20:46.998Z</time></trkpt><trkpt lat="43.438568871652045" lon="10.43377275838216"><ele>320.0</ele><time>2026-04-04T09:20:47.998Z</time></trkpt><trkpt lat="43.43869157735149" lon="10.433714654364845"><ele>320.0</ele><time>2026-04-04T09:20:48.998Z</time></trkpt><trkpt lat="43.438806962557585" lon="10.433685049947119"><ele>319.0</ele><time>2026-04-04T09:20:49.998Z</time></trkpt><trkpt lat="43.43890541908085" lon="10.433660369960489"><ele>318.0</ele><time>2026-04-04T09:20:50.998Z</time></trkpt><trkpt lat="43.43901187719552" lon="10.433628514282702"><ele>317.0</ele><time>2026-04-04T09:20:51.998Z</time></trkpt><trkpt lat="43.43909289122461" lon="10.43358833149202"><ele>316.0</ele><time>2026-04-04T09:20:52.998Z</time></trkpt><trkpt lat="43.43917084930343" lon="10.433560362568846"><ele>315.0</ele><time>2026-04-04T09:20:53.998Z</time></trkpt><trkpt lat="43.43924156278885" lon="10.433542905821504"><ele>314.0</ele><time>2026-04-04T09:20:54.998Z</time></trkpt><trkpt lat="43.43931572362563" lon="10.433477639833981"><ele>314.0</ele><time>2026-04-04T09:20:55.998Z</time></trkpt><trkpt lat="43.439355695225984" lon="10.433367860938986"><ele>314.0</ele><time>2026-04-04T09:20:56.998Z</time></trkpt><trkpt lat="43.439396052152354" lon="10.43324395287089"><ele>314.0</ele><time>2026-04-04T09:20:58.998Z</time></trkpt><trkpt lat="43.439458372081425" lon="10.433150005273406"><ele>314.0</ele><time>2026-04-04T09:21:00.998Z</time></trkpt><trkpt lat="43.43949820301779" lon="10.433067700688472"><ele>314.0</ele><time>2026-04-04T09:21:01.998Z</time></trkpt><trkpt lat="43.439540531217695" lon="10.432961602017903"><ele>314.0</ele><time>2026-04-04T09:21:02.998Z</time></trkpt><trkpt lat="43.43957745234215" lon="10.432855518339302"><ele>314.0</ele><time>2026-04-04T09:21:03.998Z</time></trkpt><trkpt lat="43.43960438731077" lon="10.43275226804436"><ele>314.0</ele><time>2026-04-04T09:21:04.998Z</time></trkpt><trkpt lat="43.439678646207526" lon="10.432640212990574"><ele>314.0</ele><time>2026-04-04T09:21:06.998Z</time></trkpt><trkpt lat="43.439768491921136" lon="10.432641799860248"><ele>314.0</ele><time>2026-04-04T09:21:07.998Z</time></trkpt><trkpt lat="43.43984321129836" lon="10.432678374309862"><ele>314.0</ele><time>2026-04-04T09:21:08.998Z</time></trkpt><trkpt lat="43.439894694503046" lon="10.432757674951326"><ele>314.0</ele><time>2026-04-04T09:21:09.998Z</time></trkpt><trkpt lat="43.440070883782624" lon="10.432779089151207"><ele>312.4</ele><time>2026-04-04T09:21:11.998Z</time></trkpt><trkpt lat="43.44018924034443" lon="10.432773909761728"><ele>310.79999999999995</ele><time>2026-04-04T09:21:12.998Z</time></trkpt><trkpt lat="43.440283180853115" lon="10.43278473627635"><ele>309.20000000000005</ele><time>2026-04-04T09:21:13.998Z</time></trkpt><trkpt lat="43.44040983729026" lon="10.432788735246653"><ele>307.6</ele><time>2026-04-04T09:21:15.998Z</time></trkpt><trkpt lat="43.44049029593704" lon="10.432787729986636"><ele>306.0</ele><time>2026-04-04T09:21:16.998Z</time></trkpt><trkpt lat="43.4405603840474" lon="10.432799472293635"><ele>305.3333333333333</ele><time>2026-04-04T09:21:17.998Z</time></trkpt><trkpt lat="43.44062972524427" lon="10.432819580869493"><ele>304.6666666666667</ele><time>2026-04-04T09:21:18.998Z</time></trkpt><trkpt lat="43.44069511802075" lon="10.432814308557267"><ele>304.0</ele><time>2026-04-04T09:21:19.998Z</time></trkpt><trkpt lat="43.44082553724805" lon="10.432808027955668"><ele>303.33333333333337</ele><time>2026-04-04T09:21:21.998Z</time></trkpt><trkpt lat="43.440894852193075" lon="10.432801071382679"><ele>302.6666666666667</ele><time>2026-04-04T09:21:22.998Z</time></trkpt><trkpt lat="43.44096043926321" lon="10.432789087601966"><ele>302.0</ele><time>2026-04-04T09:21:23.998Z</time></trkpt><trkpt lat="43.44102900054532" lon="10.432758518041709"><ele>302.00000000000006</ele><time>2026-04-04T09:21:24.998Z</time></trkpt><trkpt lat="43.441100457005874" lon="10.432724637329413"><ele>302.0</ele><time>2026-04-04T09:21:25.997Z</time></trkpt><trkpt lat="43.441171864563536" lon="10.432732195264961"><ele>302.0</ele><time>2026-04-04T09:21:26.997Z</time></trkpt><trkpt lat="43.441245897992715" lon="10.432712687120956"><ele>302.0</ele><time>2026-04-04T09:21:27.997Z</time></trkpt><trkpt lat="43.441320627773045" lon="10.43269430513402"><ele>302.0</ele><time>2026-04-04T09:21:28.997Z</time></trkpt><trkpt lat="43.44138715659723" lon="10.43267855080726"><ele>302.00000000000006</ele><time>2026-04-04T09:21:29.997Z</time></trkpt><trkpt lat="43.441459353421536" lon="10.432646333529668"><ele>302.0</ele><time>2026-04-04T09:21:30.997Z</time></trkpt><trkpt lat="43.4415419012498" lon="10.432607508355144"><ele>299.6</ele><time>2026-04-04T09:21:32Z</time></trkpt><trkpt lat="43.44163558750587" lon="10.432570206375408"><ele>297.2</ele><time>2026-04-04T09:21:33Z</time></trkpt><trkpt lat="43.44171106002033" lon="10.432525715493423"><ele>294.8</ele><time>2026-04-04T09:21:34Z</time></trkpt><trkpt lat="43.441778348883176" lon="10.432481854596846"><ele>292.4</ele><time>2026-04-04T09:21:35Z</time></trkpt><trkpt lat="43.441855407097165" lon="10.432364701870776"><ele>290.0</ele><time>2026-04-04T09:21:37Z</time></trkpt><trkpt lat="43.4418779936237" lon="10.432210907500934"><ele>289.4</ele><time>2026-04-04T09:21:39Z</time></trkpt><trkpt lat="43.44190346467272" lon="10.432032734894626"><ele>288.8</ele><time>2026-04-04T09:21:41Z</time></trkpt><trkpt lat="43.441918813735946" lon="10.431913709258554"><ele>288.2</ele><time>2026-04-04T09:21:42Z</time></trkpt><trkpt lat="43.441930540590214" lon="10.431778970823423"><ele>287.6</ele><time>2026-04-04T09:21:43Z</time></trkpt><trkpt lat="43.44193962808059" lon="10.431658748411843"><ele>287.0</ele><time>2026-04-04T09:21:44Z</time></trkpt><trkpt lat="43.44194850721784" lon="10.431554950132442"><ele>287.0</ele><time>2026-04-04T09:21:45Z</time></trkpt><trkpt lat="43.44192495521991" lon="10.431459848192883"><ele>287.0</ele><time>2026-04-04T09:21:46Z</time></trkpt><trkpt lat="43.44188348790853" lon="10.431375886566366"><ele>287.0</ele><time>2026-04-04T09:21:47Z</time></trkpt><trkpt lat="43.44187286349543" lon="10.431281177126134"><ele>287.0</ele><time>2026-04-04T09:21:48Z</time></trkpt><trkpt lat="43.44188462059127" lon="10.431164477437163"><ele>287.0</ele><time>2026-04-04T09:21:49Z</time></trkpt><trkpt lat="43.44189658551016" lon="10.431049868226237"><ele>287.0</ele><time>2026-04-04T09:21:50Z</time></trkpt><trkpt lat="43.441905017971216" lon="10.430945010532126"><ele>286.33333333333337</ele><time>2026-04-04T09:21:51Z</time></trkpt><trkpt lat="43.441916775410746" lon="10.430825022756439"><ele>285.6666666666667</ele><time>2026-04-04T09:21:52Z</time></trkpt><trkpt lat="43.44195253788705" lon="10.430717037373453"><ele>285.0</ele><time>2026-04-04T09:21:53Z</time></trkpt><trkpt lat="43.44198182855149" lon="10.430612952600633"><ele>284.3333333333333</ele><time>2026-04-04T09:21:54Z</time></trkpt><trkpt lat="43.442025945628686" lon="10.430526100124661"><ele>283.66666666666663</ele><time>2026-04-04T09:21:55Z</time></trkpt><trkpt lat="43.44209194661659" lon="10.43044734902374"><ele>283.0</ele><time>2026-04-04T09:21:56Z</time></trkpt><trkpt lat="43.44215414206628" lon="10.430409937021667"><ele>285.8</ele><time>2026-04-04T09:21:57Z</time></trkpt><trkpt lat="43.44223649667006" lon="10.430308420476887"><ele>288.6</ele><time>2026-04-04T09:21:59Z</time></trkpt><trkpt lat="43.44224751588889" lon="10.43021157353573"><ele>291.4</ele><time>2026-04-04T09:22:00Z</time></trkpt><trkpt lat="43.44228898221676" lon="10.43005063938025"><ele>294.2</ele><time>2026-04-04T09:22:01.999Z</time></trkpt><trkpt lat="43.442283808839264" lon="10.429909476670224"><ele>297.0</ele><time>2026-04-04T09:22:02.999Z</time></trkpt><trkpt lat="43.44229112397635" lon="10.429747187975613"><ele>296.0</ele><time>2026-04-04T09:22:03.999Z</time></trkpt><trkpt lat="43.44230174939691" lon="10.429639425487663"><ele>295.0</ele><time>2026-04-04T09:22:04.999Z</time></trkpt><trkpt lat="43.442275974232714" lon="10.429542078645673"><ele>294.0</ele><time>2026-04-04T09:22:05.999Z</time></trkpt><trkpt lat="43.44225353100795" lon="10.429432963264464"><ele>293.0</ele><time>2026-04-04T09:22:06.999Z</time></trkpt><trkpt lat="43.44224036433684" lon="10.429337001446497"><ele>292.0</ele><time>2026-04-04T09:22:07.999Z</time></trkpt><trkpt lat="43.44224702038807" lon="10.429177856179358"><ele>291.0</ele><time>2026-04-04T09:22:09.999Z</time></trkpt><trkpt lat="43.44228998635159" lon="10.429046750123602"><ele>291.0</ele><time>2026-04-04T09:22:11.999Z</time></trkpt><trkpt lat="43.44235118474322" lon="10.428914870566292"><ele>291.0</ele><time>2026-04-04T09:22:13.999Z</time></trkpt><trkpt lat="43.44239776870662" lon="10.428851732353902"><ele>291.0</ele><time>2026-04-04T09:22:14.999Z</time></trkpt><trkpt lat="43.44247676286017" lon="10.428724377791882"><ele>291.0</ele><time>2026-04-04T09:22:16.999Z</time></trkpt><trkpt lat="43.44248887994923" lon="10.428615405796933"><ele>291.0</ele><time>2026-04-04T09:22:17.999Z</time></trkpt><trkpt lat="43.44247086889446" lon="10.428486142782432"><ele>289.1666666666667</ele><time>2026-04-04T09:22:18.999Z</time></trkpt><trkpt lat="43.4424628496325" lon="10.42833806828509"><ele>287.3333333333333</ele><time>2026-04-04T09:22:19.999Z</time></trkpt><trkpt lat="43.44246081973789" lon="10.42822162368884"><ele>285.5</ele><time>2026-04-04T09:22:20.999Z</time></trkpt><trkpt lat="43.44245706315828" lon="10.428098065851367"><ele>283.66666666666663</ele><time>2026-04-04T09:22:21.999Z</time></trkpt><trkpt lat="43.442453609813434" lon="10.427984546722525"><ele>281.8333333333333</ele><time>2026-04-04T09:22:22.999Z</time></trkpt><trkpt lat="43.442459583541286" lon="10.427882000861695"><ele>280.0</ele><time>2026-04-04T09:22:23.999Z</time></trkpt><trkpt lat="43.44245171825562" lon="10.427785992819958"><ele>278.8333333333333</ele><time>2026-04-04T09:22:24.999Z</time></trkpt><trkpt lat="43.44245460801032" lon="10.427683153220483"><ele>277.66666666666663</ele><time>2026-04-04T09:22:25.999Z</time></trkpt><trkpt lat="43.44247438831054" lon="10.42756983122148"><ele>276.5</ele><time>2026-04-04T09:22:26.999Z</time></trkpt><trkpt lat="43.44248066876171" lon="10.42746893567699"><ele>275.3333333333333</ele><time>2026-04-04T09:22:27.999Z</time></trkpt><trkpt lat="43.44250009533119" lon="10.427363716533357"><ele>274.1666666666667</ele><time>2026-04-04T09:22:28.999Z</time></trkpt><trkpt lat="43.44253073121372" lon="10.427272547720257"><ele>273.0</ele><time>2026-04-04T09:22:29.999Z</time></trkpt><trkpt lat="43.44256365585216" lon="10.427191192173197"><ele>271.6666666666667</ele><time>2026-04-04T09:22:30.999Z</time></trkpt><trkpt lat="43.442608349194224" lon="10.427098963901384"><ele>270.3333333333333</ele><time>2026-04-04T09:22:31.999Z</time></trkpt><trkpt lat="43.44267709061019" lon="10.426997434362672"><ele>269.0</ele><time>2026-04-04T09:22:32.999Z</time></trkpt><trkpt lat="43.44274802578306" lon="10.42692279992409"><ele>267.66666666666663</ele><time>2026-04-04T09:22:33.999Z</time></trkpt><trkpt lat="43.44280861925451" lon="10.426880323060642"><ele>266.3333333333333</ele><time>2026-04-04T09:22:34.999Z</time></trkpt><trkpt lat="43.44287159624179" lon="10.426851628425167"><ele>265.0</ele><time>2026-04-04T09:22:35.999Z</time></trkpt><trkpt lat="43.44293462468862" lon="10.426804826635353"><ele>265.0</ele><time>2026-04-04T09:22:36.999Z</time></trkpt><trkpt lat="43.4429925582697" lon="10.42674565640166"><ele>265.0</ele><time>2026-04-04T09:22:37.999Z</time></trkpt><trkpt lat="43.443044851172154" lon="10.426649789203804"><ele>265.0</ele><time>2026-04-04T09:22:39.999Z</time></trkpt><trkpt lat="43.44302263721678" lon="10.426555944766601"><ele>265.0</ele><time>2026-04-04T09:22:40.999Z</time></trkpt><trkpt lat="43.442979348206606" lon="10.426486605467172"><ele>265.0</ele><time>2026-04-04T09:22:41.999Z</time></trkpt><trkpt lat="43.442908952092665" lon="10.426394987692808"><ele>265.0</ele><time>2026-04-04T09:22:43.999Z</time></trkpt><trkpt lat="43.44284799518942" lon="10.426351510990218"><ele>265.0</ele><time>2026-04-04T09:22:44.999Z</time></trkpt><trkpt lat="43.442770023347734" lon="10.426301116995871"><ele>265.0</ele><time>2026-04-04T09:22:45.998Z</time></trkpt><trkpt lat="43.442701056664426" lon="10.426219307218798"><ele>265.0</ele><time>2026-04-04T09:22:46.998Z</time></trkpt><trkpt lat="43.4426217171797" lon="10.426113685547636"><ele>265.0</ele><time>2026-04-04T09:22:47.998Z</time></trkpt><trkpt lat="43.44254698246207" lon="10.426026215129294"><ele>265.0</ele><time>2026-04-04T09:22:48.998Z</time></trkpt><trkpt lat="43.44249139937493" lon="10.425935149880702"><ele>265.0</ele><time>2026-04-04T09:22:49.998Z</time></trkpt><trkpt lat="43.44243286938691" lon="10.425857363476416"><ele>265.0</ele><time>2026-04-04T09:22:50.998Z</time></trkpt><trkpt lat="43.442390973419506" lon="10.425773299475162"><ele>265.0</ele><time>2026-04-04T09:22:51.998Z</time></trkpt><trkpt lat="43.44236630271162" lon="10.425666429885714"><ele>265.0</ele><time>2026-04-04T09:22:52.998Z</time></trkpt><trkpt lat="43.44233679266429" lon="10.425541941764447"><ele>265.0</ele><time>2026-04-04T09:22:53.998Z</time></trkpt><trkpt lat="43.44231339550752" lon="10.425437295828754"><ele>265.0</ele><time>2026-04-04T09:22:54.998Z</time></trkpt><trkpt lat="43.44230872274911" lon="10.42528816808067"><ele>264.8</ele><time>2026-04-04T09:22:56.998Z</time></trkpt><trkpt lat="43.442318431130744" lon="10.42519136150851"><ele>264.6</ele><time>2026-04-04T09:22:57.998Z</time></trkpt><trkpt lat="43.44236093167536" lon="10.42507160185253"><ele>264.4</ele><time>2026-04-04T09:22:58.998Z</time></trkpt><trkpt lat="43.44239427648443" lon="10.424964519594816"><ele>264.2</ele><time>2026-04-04T09:22:59.998Z</time></trkpt><trkpt lat="43.442353067995" lon="10.424799803477445"><ele>264.0</ele><time>2026-04-04T09:23:01.998Z</time></trkpt><trkpt lat="43.44237251759311" lon="10.424647051503458"><ele>262.59999999999997</ele><time>2026-04-04T09:23:03.998Z</time></trkpt><trkpt lat="43.44239217226655" lon="10.424522002845263"><ele>261.2</ele><time>2026-04-04T09:23:04.998Z</time></trkpt><trkpt lat="43.44235822845938" lon="10.424413162467685"><ele>259.79999999999995</ele><time>2026-04-04T09:23:05.998Z</time></trkpt><trkpt lat="43.44231747767608" lon="10.424293215002958"><ele>258.4</ele><time>2026-04-04T09:23:06.998Z</time></trkpt><trkpt lat="43.442298217311254" lon="10.424154407601078"><ele>257.0</ele><time>2026-04-04T09:23:07.998Z</time></trkpt><trkpt lat="43.442283378957825" lon="10.424025845866177"><ele>257.0</ele><time>2026-04-04T09:23:08.998Z</time></trkpt><trkpt lat="43.442255113986576" lon="10.423920319903631"><ele>257.0</ele><time>2026-04-04T09:23:09.998Z</time></trkpt><trkpt lat="43.442235083666034" lon="10.42383639546616"><ele>257.0</ele><time>2026-04-04T09:23:10.998Z</time></trkpt><trkpt lat="43.4421869160806" lon="10.423746279565206"><ele>257.0</ele><time>2026-04-04T09:23:11.998Z</time></trkpt><trkpt lat="43.442124916004715" lon="10.423642565774792"><ele>257.0</ele><time>2026-04-04T09:23:12.998Z</time></trkpt><trkpt lat="43.44207704430809" lon="10.42354974037717"><ele>257.0</ele><time>2026-04-04T09:23:13.998Z</time></trkpt><trkpt lat="43.44202738558413" lon="10.42344555191306"><ele>257.2</ele><time>2026-04-04T09:23:14.998Z</time></trkpt><trkpt lat="43.441964728095535" lon="10.42334277753434"><ele>257.4</ele><time>2026-04-04T09:23:15.998Z</time></trkpt><trkpt lat="43.44190758842282" lon="10.423209154725733"><ele>257.6</ele><time>2026-04-04T09:23:16.998Z</time></trkpt><trkpt lat="43.44184803860272" lon="10.423099286180568"><ele>257.8</ele><time>2026-04-04T09:23:17.998Z</time></trkpt><trkpt lat="43.441779874926404" lon="10.423006692100218"><ele>258.0</ele><time>2026-04-04T09:23:18.998Z</time></trkpt><trkpt lat="43.44171491824897" lon="10.42290724396426"><ele>259.6666666666667</ele><time>2026-04-04T09:23:19.998Z</time></trkpt><trkpt lat="43.44168507150692" lon="10.422773483701205"><ele>261.3333333333333</ele><time>2026-04-04T09:23:20.998Z</time></trkpt><trkpt lat="43.44166373998222" lon="10.422641413598345"><ele>263.0</ele><time>2026-04-04T09:23:21.998Z</time></trkpt><trkpt lat="43.441660081854316" lon="10.422514480373096"><ele>264.66666666666663</ele><time>2026-04-04T09:23:22.998Z</time></trkpt><trkpt lat="43.44165800365799" lon="10.422416611470524"><ele>266.3333333333333</ele><time>2026-04-04T09:23:23.998Z</time></trkpt><trkpt lat="43.441654107398755" lon="10.42232926940712"><ele>268.0</ele><time>2026-04-04T09:23:24.998Z</time></trkpt><trkpt lat="43.44168814427188" lon="10.422240619107413"><ele>268.0</ele><time>2026-04-04T09:23:25.998Z</time></trkpt><trkpt lat="43.441746396401186" lon="10.422165917820585"><ele>268.0</ele><time>2026-04-04T09:23:26.998Z</time></trkpt><trkpt lat="43.441746630585165" lon="10.422027565907062"><ele>268.0</ele><time>2026-04-04T09:23:28.998Z</time></trkpt><trkpt lat="43.44172826412937" lon="10.42187678628741"><ele>268.0</ele><time>2026-04-04T09:23:30.997Z</time></trkpt><trkpt lat="43.441754243126375" lon="10.421791964131417"><ele>268.0</ele><time>2026-04-04T09:23:31.997Z</time></trkpt><trkpt lat="43.441760136518106" lon="10.421703738660877"><ele>268.0</ele><time>2026-04-04T09:23:32.997Z</time></trkpt><trkpt lat="43.44175667565883" lon="10.421592379031193"><ele>269.6</ele><time>2026-04-04T09:23:33.997Z</time></trkpt><trkpt lat="43.4417582963997" lon="10.421489736302993"><ele>271.20000000000005</ele><time>2026-04-04T09:23:34.997Z</time></trkpt><trkpt lat="43.44176072176668" lon="10.421330666577543"><ele>272.8</ele><time>2026-04-04T09:23:36.997Z</time></trkpt><trkpt lat="43.441817023972234" lon="10.421176407875317"><ele>274.40000000000003</ele><time>2026-04-04T09:23:39Z</time></trkpt><trkpt lat="43.441870260484336" lon="10.421070675777555"><ele>276.0</ele><time>2026-04-04T09:23:40Z</time></trkpt><trkpt lat="43.44191398317159" lon="10.42095265078199"><ele>277.5</ele><time>2026-04-04T09:23:41Z</time></trkpt><trkpt lat="43.44193511050762" lon="10.42085612060212"><ele>279.0</ele><time>2026-04-04T09:23:42Z</time></trkpt><trkpt lat="43.44196828368376" lon="10.420778445399709"><ele>280.5</ele><time>2026-04-04T09:23:43Z</time></trkpt><trkpt lat="43.44200141523834" lon="10.420701121976698"><ele>282.0</ele><time>2026-04-04T09:23:45Z</time></trkpt><trkpt lat="43.44195591237706" lon="10.42057182743086"><ele>283.5</ele><time>2026-04-04T09:23:48Z</time></trkpt><trkpt lat="43.441921028700484" lon="10.420467413729924"><ele>285.0</ele><time>2026-04-04T09:23:50Z</time></trkpt><trkpt lat="43.44184572761566" lon="10.420335164734347"><ele>285.8</ele><time>2026-04-04T09:23:52Z</time></trkpt><trkpt lat="43.4417621898795" lon="10.420109415122573"><ele>286.6</ele><time>2026-04-04T09:23:53Z</time></trkpt><trkpt lat="43.44176818812283" lon="10.419995022864967"><ele>287.4</ele><time>2026-04-04T09:23:54Z</time></trkpt><trkpt lat="43.44179387846266" lon="10.419881400703586"><ele>288.2</ele><time>2026-04-04T09:23:55Z</time></trkpt><trkpt lat="43.441817481359145" lon="10.419767087049078"><ele>289.0</ele><time>2026-04-04T09:23:56Z</time></trkpt><trkpt lat="43.44183431047247" lon="10.419639906777826"><ele>289.3333333333333</ele><time>2026-04-04T09:23:57Z</time></trkpt><trkpt lat="43.44184659443951" lon="10.419537147561137"><ele>289.66666666666663</ele><time>2026-04-04T09:23:58Z</time></trkpt><trkpt lat="43.44185155546324" lon="10.419445954252911"><ele>290.0</ele><time>2026-04-04T09:23:59Z</time></trkpt><trkpt lat="43.44185559754421" lon="10.419330453915228"><ele>290.3333333333333</ele><time>2026-04-04T09:24:00Z</time></trkpt><trkpt lat="43.4418638293523" lon="10.419204049940145"><ele>290.6666666666667</ele><time>2026-04-04T09:24:01Z</time></trkpt><trkpt lat="43.44185816753265" lon="10.419093121766494"><ele>291.0</ele><time>2026-04-04T09:24:02Z</time></trkpt><trkpt lat="43.441881714258294" lon="10.418900287367354"><ele>291.1666666666667</ele><time>2026-04-04T09:24:04Z</time></trkpt><trkpt lat="43.44191367840353" lon="10.418800086412388"><ele>291.3333333333333</ele><time>2026-04-04T09:24:05Z</time></trkpt><trkpt lat="43.44193633978519" lon="10.418702835087077"><ele>291.5</ele><time>2026-04-04T09:24:05.999Z</time></trkpt><trkpt lat="43.44195431490062" lon="10.418595746915914"><ele>291.66666666666663</ele><time>2026-04-04T09:24:06.999Z</time></trkpt><trkpt lat="43.44195722847633" lon="10.418490295377527"><ele>291.8333333333333</ele><time>2026-04-04T09:24:07.999Z</time></trkpt><trkpt lat="43.44195708962463" lon="10.41838658476024"><ele>292.0</ele><time>2026-04-04T09:24:08.999Z</time></trkpt><trkpt lat="43.4419536510763" lon="10.418294449971647"><ele>292.0</ele><time>2026-04-04T09:24:09.999Z</time></trkpt><trkpt lat="43.44191306737159" lon="10.41817543633122"><ele>292.0</ele><time>2026-04-04T09:24:11.999Z</time></trkpt><trkpt lat="43.44185465995177" lon="10.418007798254418"><ele>292.0</ele><time>2026-04-04T09:24:13.999Z</time></trkpt><trkpt lat="43.44184265271225" lon="10.41791904547737"><ele>292.0</ele><time>2026-04-04T09:24:14.999Z</time></trkpt><trkpt lat="43.441874922195005" lon="10.417829601116269"><ele>292.0</ele><time>2026-04-04T09:24:15.999Z</time></trkpt><trkpt lat="43.44194736774093" lon="10.417733409602093"><ele>292.0</ele><time>2026-04-04T09:24:16.999Z</time></trkpt><trkpt lat="43.442027601126554" lon="10.417664005896128"><ele>292.0</ele><time>2026-04-04T09:24:17.999Z</time></trkpt><trkpt lat="43.44208156756603" lon="10.417613323282222"><ele>292.0</ele><time>2026-04-04T09:24:18.999Z</time></trkpt><trkpt lat="43.442109725270406" lon="10.417485319683935"><ele>292.0</ele><time>2026-04-04T09:24:20.999Z</time></trkpt><trkpt lat="43.44207174528296" lon="10.4174012414359"><ele>292.0</ele><time>2026-04-04T09:24:31.999Z</time></trkpt><trkpt lat="43.44207040507923" lon="10.417285176415007"><ele>292.0</ele><time>2026-04-04T09:24:53.998Z</time></trkpt><trkpt lat="43.44210549425569" lon="10.417137921911282"><ele>287.8</ele><time>2026-04-04T09:24:55.998Z</time></trkpt><trkpt lat="43.442136234516674" lon="10.416990642677296"><ele>283.6</ele><time>2026-04-04T09:24:57.998Z</time></trkpt><trkpt lat="43.44217972191137" lon="10.416910324224004"><ele>279.40000000000003</ele><time>2026-04-04T09:24:58.998Z</time></trkpt><trkpt lat="43.44224365051437" lon="10.416811671530514"><ele>275.2</ele><time>2026-04-04T09:25:00.998Z</time></trkpt><trkpt lat="43.442245583052674" lon="10.416631844513232"><ele>271.0</ele><time>2026-04-04T09:25:02.998Z</time></trkpt><trkpt lat="43.4422525613032" lon="10.416536224575742"><ele>271.0</ele><time>2026-04-04T09:25:03.998Z</time></trkpt><trkpt lat="43.442261683534745" lon="10.416443507325972"><ele>271.0</ele><time>2026-04-04T09:25:05.998Z</time></trkpt><trkpt lat="43.44225823714501" lon="10.416301571091198"><ele>271.0</ele><time>2026-04-04T09:25:07.998Z</time></trkpt><trkpt lat="43.4422491856919" lon="10.416134176442897"><ele>271.0</ele><time>2026-04-04T09:25:09.998Z</time></trkpt><trkpt lat="43.44228044702078" lon="10.416022876850088"><ele>271.0</ele><time>2026-04-04T09:25:11.998Z</time></trkpt><trkpt lat="43.44233885584534" lon="10.415980631435463"><ele>271.0</ele><time>2026-04-04T09:25:15.998Z</time></trkpt><trkpt lat="43.44241318026886" lon="10.415979677226789"><ele>271.0</ele><time>2026-04-04T09:25:19.998Z</time></trkpt><trkpt lat="43.44248177059664" lon="10.41600237477129"><ele>271.0</ele><time>2026-04-04T09:25:28.998Z</time></trkpt><trkpt lat="43.44254435773671" lon="10.416017952515844"><ele>271.0</ele><time>2026-04-04T09:25:31.998Z</time></trkpt><trkpt lat="43.44263034039823" lon="10.416055354107922"><ele>271.0</ele><time>2026-04-04T09:25:34.998Z</time></trkpt><trkpt lat="43.442689509661804" lon="10.416108205652021"><ele>271.0</ele><time>2026-04-04T09:25:37.997Z</time></trkpt><trkpt lat="43.44276850069304" lon="10.416132716046905"><ele>271.0</ele><time>2026-04-04T09:25:40.997Z</time></trkpt><trkpt lat="43.44284044185772" lon="10.41612123203034"><ele>271.0</ele><time>2026-04-04T09:25:44Z</time></trkpt><trkpt lat="43.44292916043068" lon="10.416110634846742"><ele>268.0</ele><time>2026-04-04T09:25:50Z</time></trkpt><trkpt lat="43.443007798963116" lon="10.416071179953663"><ele>265.0</ele><time>2026-04-04T09:25:53Z</time></trkpt><trkpt lat="43.443072806012715" lon="10.416056927511667"><ele>262.0</ele><time>2026-04-04T09:25:55Z</time></trkpt><trkpt lat="43.44312713180083" lon="10.416119362097628"><ele>259.0</ele><time>2026-04-04T09:25:58Z</time></trkpt><trkpt lat="43.44316763668355" lon="10.416213625776376"><ele>256.0</ele><time>2026-04-04T09:26:00Z</time></trkpt><trkpt lat="43.44320047992057" lon="10.416287821389606"><ele>253.0</ele><time>2026-04-04T09:26:03Z</time></trkpt><trkpt lat="43.443251117464854" lon="10.41635890693849"><ele>250.0</ele><time>2026-04-04T09:26:06Z</time></trkpt><trkpt lat="43.44330932826169" lon="10.41642967252947"><ele>249.99999999999997</ele><time>2026-04-04T09:26:08Z</time></trkpt><trkpt lat="43.44336294354971" lon="10.416525506882653"><ele>250.0</ele><time>2026-04-04T09:26:10Z</time></trkpt><trkpt lat="43.44338244804541" lon="10.416668478437021"><ele>250.0</ele><time>2026-04-04T09:26:13.999Z</time></trkpt><trkpt lat="43.4434340362978" lon="10.41676377651429"><ele>250.0</ele><time>2026-04-04T09:26:16.999Z</time></trkpt><trkpt lat="43.443497371816086" lon="10.416843827372022"><ele>249.99999999999997</ele><time>2026-04-04T09:26:18.999Z</time></trkpt><trkpt lat="43.44352019717774" lon="10.416925428289"><ele>250.0</ele><time>2026-04-04T09:26:20.999Z</time></trkpt><trkpt lat="43.44356927070956" lon="10.417002078334908"><ele>250.0</ele><time>2026-04-04T09:26:25.999Z</time></trkpt><trkpt lat="43.44365556106804" lon="10.417001882519408"><ele>250.0</ele><time>2026-04-04T09:26:28.999Z</time></trkpt><trkpt lat="43.44373131868691" lon="10.416944967008945"><ele>250.0</ele><time>2026-04-04T09:26:30.999Z</time></trkpt><trkpt lat="43.44377896834562" lon="10.416879803923065"><ele>250.0</ele><time>2026-04-04T09:26:34.999Z</time></trkpt><trkpt lat="43.443815356375275" lon="10.416806469456105"><ele>250.0</ele><time>2026-04-04T09:26:38.999Z</time></trkpt><trkpt lat="43.44384001037866" lon="10.41672240460074"><ele>250.0</ele><time>2026-04-04T09:26:41.999Z</time></trkpt><trkpt lat="43.4438553760726" lon="10.416622103380615"><ele>250.0</ele><time>2026-04-04T09:26:44.999Z</time></trkpt><trkpt lat="43.44391302893434" lon="10.41645627811573"><ele>244.8</ele><time>2026-04-04T09:26:47.999Z</time></trkpt><trkpt lat="43.443950972935404" lon="10.416243934532952"><ele>239.6</ele><time>2026-04-04T09:26:48.999Z</time></trkpt><trkpt lat="43.44397672899491" lon="10.416152625983562"><ele>234.39999999999998</ele><time>2026-04-04T09:26:49.999Z</time></trkpt><trkpt lat="43.4440110372334" lon="10.416022830287353"><ele>229.2</ele><time>2026-04-04T09:26:51.999Z</time></trkpt><trkpt lat="43.44403219737558" lon="10.415927420686474"><ele>224.0</ele><time>2026-04-04T09:26:53.999Z</time></trkpt><trkpt lat="43.44407551099504" lon="10.415829607518544"><ele>224.00000000000003</ele><time>2026-04-04T09:26:56.998Z</time></trkpt><trkpt lat="43.44411788735844" lon="10.415716555997335"><ele>224.0</ele><time>2026-04-04T09:26:59.998Z</time></trkpt><trkpt lat="43.44417678063892" lon="10.415645346517566"><ele>224.0</ele><time>2026-04-04T09:27:02.998Z</time></trkpt><trkpt lat="43.444216095891036" lon="10.415563694886542"><ele>224.0</ele><time>2026-04-04T09:27:05.998Z</time></trkpt><trkpt lat="43.44424971155801" lon="10.415480639114126"><ele>224.00000000000003</ele><time>2026-04-04T09:27:07.998Z</time></trkpt><trkpt lat="43.4443109484246" lon="10.415550457850783"><ele>224.0</ele><time>2026-04-04T09:27:10.998Z</time></trkpt><trkpt lat="43.44430462485061" lon="10.415656094641161"><ele>224.0</ele><time>2026-04-04T09:27:13.998Z</time></trkpt><trkpt lat="43.44431360538008" lon="10.415922415937752"><ele>224.0</ele><time>2026-04-04T09:27:14.998Z</time></trkpt><trkpt lat="43.44432457099602" lon="10.416096658983879"><ele>224.0</ele><time>2026-04-04T09:27:15.998Z</time></trkpt><trkpt lat="43.44433447312233" lon="10.416283569533825"><ele>224.6</ele><time>2026-04-04T09:27:16.998Z</time></trkpt><trkpt lat="43.44436128760144" lon="10.416439176519457"><ele>225.2</ele><time>2026-04-04T09:27:17.998Z</time></trkpt><trkpt lat="43.444394314767635" lon="10.416570959975912"><ele>225.79999999999998</ele><time>2026-04-04T09:27:18.998Z</time></trkpt><trkpt lat="43.44444225088845" lon="10.41667377056323"><ele>226.39999999999998</ele><time>2026-04-04T09:27:19.998Z</time></trkpt><trkpt lat="43.44443764609286" lon="10.416854113721781"><ele>227.0</ele><time>2026-04-04T09:27:21.998Z</time></trkpt><trkpt lat="43.44440192144452" lon="10.41695316051475"><ele>227.0</ele><time>2026-04-04T09:27:22.998Z</time></trkpt><trkpt lat="43.444366665386696" lon="10.417070340200562"><ele>227.0</ele><time>2026-04-04T09:27:23.998Z</time></trkpt><trkpt lat="43.4443257801542" lon="10.4171907449028"><ele>227.0</ele><time>2026-04-04T09:27:24.998Z</time></trkpt><trkpt lat="43.44427649835736" lon="10.417315974844415"><ele>227.0</ele><time>2026-04-04T09:27:25.998Z</time></trkpt><trkpt lat="43.444217369511236" lon="10.41744901892718"><ele>227.0</ele><time>2026-04-04T09:27:26.998Z</time></trkpt><trkpt lat="43.44415665549608" lon="10.417567638836154"><ele>226.0</ele><time>2026-04-04T09:27:27.998Z</time></trkpt><trkpt lat="43.44409779210641" lon="10.41766544035935"><ele>225.0</ele><time>2026-04-04T09:27:28.998Z</time></trkpt><trkpt lat="43.44403903212415" lon="10.417747096423245"><ele>224.0</ele><time>2026-04-04T09:27:29.998Z</time></trkpt><trkpt lat="43.443980626237625" lon="10.417787203134978"><ele>223.0</ele><time>2026-04-04T09:27:30.998Z</time></trkpt><trkpt lat="43.44389533377593" lon="10.417843426738674"><ele>222.0</ele><time>2026-04-04T09:27:31.998Z</time></trkpt><trkpt lat="43.44374320599475" lon="10.41786977870923"><ele>223.83333333333334</ele><time>2026-04-04T09:27:32.998Z</time></trkpt><trkpt lat="43.443686881778426" lon="10.417913447113786"><ele>225.66666666666669</ele><time>2026-04-04T09:27:33.998Z</time></trkpt><trkpt lat="43.44367772944588" lon="10.418007987252"><ele>227.5</ele><time>2026-04-04T09:27:34.998Z</time></trkpt><trkpt lat="43.44367585932798" lon="10.418113649156142"><ele>229.33333333333334</ele><time>2026-04-04T09:27:35.998Z</time></trkpt><trkpt lat="43.44369230868365" lon="10.418272451791898"><ele>231.16666666666669</ele><time>2026-04-04T09:27:36.998Z</time></trkpt><trkpt lat="43.44371250862316" lon="10.418428872415621"><ele>233.0</ele><time>2026-04-04T09:27:37.998Z</time></trkpt><trkpt lat="43.443689630877145" lon="10.418547313864401"><ele>233.00000000000003</ele><time>2026-04-04T09:27:38.998Z</time></trkpt><trkpt lat="43.443644902331535" lon="10.418675365357862"><ele>233.0</ele><time>2026-04-04T09:27:39.998Z</time></trkpt><trkpt lat="43.44360630795123" lon="10.418803775870357"><ele>233.0</ele><time>2026-04-04T09:27:40.997Z</time></trkpt><trkpt lat="43.44357411427006" lon="10.418928073797828"><ele>233.0</ele><time>2026-04-04T09:27:41.997Z</time></trkpt><trkpt lat="43.44358200693197" lon="10.419017390770852"><ele>233.00000000000003</ele><time>2026-04-04T09:27:42.997Z</time></trkpt><trkpt lat="43.44359811894471" lon="10.419116817518299"><ele>233.0</ele><time>2026-04-04T09:27:43.997Z</time></trkpt><trkpt lat="43.443625943825054" lon="10.419212345282816"><ele>233.2</ele><time>2026-04-04T09:27:44.997Z</time></trkpt><trkpt lat="43.44368025469534" lon="10.419285849273331"><ele>233.4</ele><time>2026-04-04T09:27:45.997Z</time></trkpt><trkpt lat="43.44364679673199" lon="10.419443987444417"><ele>233.59999999999997</ele><time>2026-04-04T09:27:47.997Z</time></trkpt><trkpt lat="43.44360399285277" lon="10.419567237476638"><ele>233.79999999999998</ele><time>2026-04-04T09:27:49Z</time></trkpt><trkpt lat="43.44356719146356" lon="10.41967612504324"><ele>234.0</ele><time>2026-04-04T09:27:50Z</time></trkpt><trkpt lat="43.4435384338531" lon="10.419771065248831"><ele>234.6</ele><time>2026-04-04T09:27:51Z</time></trkpt><trkpt lat="43.44348141681662" lon="10.419905296664615"><ele>235.2</ele><time>2026-04-04T09:27:53Z</time></trkpt><trkpt lat="43.443429443030915" lon="10.420004363804525"><ele>235.79999999999998</ele><time>2026-04-04T09:27:55Z</time></trkpt><trkpt lat="43.443401516509944" lon="10.42013148756403"><ele>236.39999999999998</ele><time>2026-04-04T09:27:57Z</time></trkpt><trkpt lat="43.44338952723675" lon="10.420244282345624"><ele>237.0</ele><time>2026-04-04T09:27:58Z</time></trkpt><trkpt lat="43.44339925954496" lon="10.420353502081111"><ele>236.99999999999997</ele><time>2026-04-04T09:27:59Z</time></trkpt><trkpt lat="43.44340563321613" lon="10.420450448845974"><ele>237.0</ele><time>2026-04-04T09:28:00Z</time></trkpt><trkpt lat="43.4434046624428" lon="10.420545711870673"><ele>236.99999999999997</ele><time>2026-04-04T09:28:01Z</time></trkpt><trkpt lat="43.44339874342105" lon="10.420651394422622"><ele>236.99999999999997</ele><time>2026-04-04T09:28:02Z</time></trkpt><trkpt lat="43.44339746292482" lon="10.42075443045879"><ele>237.0</ele><time>2026-04-04T09:28:03Z</time></trkpt><trkpt lat="43.44339979131205" lon="10.42084331922073"><ele>236.99999999999997</ele><time>2026-04-04T09:28:04Z</time></trkpt><trkpt lat="43.44338013879408" lon="10.420957034440251"><ele>236.99999999999997</ele><time>2026-04-04T09:28:05Z</time></trkpt><trkpt lat="43.443324480798154" lon="10.421064948136243"><ele>237.2</ele><time>2026-04-04T09:28:06Z</time></trkpt><trkpt lat="43.44325158792811" lon="10.421161716724736"><ele>237.39999999999998</ele><time>2026-04-04T09:28:07Z</time></trkpt><trkpt lat="43.443167554036705" lon="10.421244674707484"><ele>237.60000000000002</ele><time>2026-04-04T09:28:08Z</time></trkpt><trkpt lat="43.44306387691809" lon="10.421335600930533"><ele>237.8</ele><time>2026-04-04T09:28:09Z</time></trkpt><trkpt lat="43.44296845381633" lon="10.421401981717443"><ele>238.0</ele><time>2026-04-04T09:28:10Z</time></trkpt><trkpt lat="43.4428970766155" lon="10.421459759758028"><ele>241.8</ele><time>2026-04-04T09:28:11Z</time></trkpt><trkpt lat="43.44283215569993" lon="10.421508421222429"><ele>245.60000000000002</ele><time>2026-04-04T09:28:12Z</time></trkpt><trkpt lat="43.4427635232943" lon="10.421514866087357"><ele>249.39999999999998</ele><time>2026-04-04T09:28:13Z</time></trkpt><trkpt lat="43.442688913221644" lon="10.42157741182649"><ele>253.2</ele><time>2026-04-04T09:28:14Z</time></trkpt><trkpt lat="43.44262114700594" lon="10.421686692748578"><ele>257.0</ele><time>2026-04-04T09:28:14.999Z</time></trkpt><trkpt lat="43.44263448186379" lon="10.421869002178063"><ele>257.0</ele><time>2026-04-04T09:28:16.999Z</time></trkpt><trkpt lat="43.442673447332986" lon="10.422001467431594"><ele>257.0</ele><time>2026-04-04T09:28:17.999Z</time></trkpt><trkpt lat="43.44265315201856" lon="10.422143430402812"><ele>257.0</ele><time>2026-04-04T09:28:18.999Z</time></trkpt><trkpt lat="43.442711580140084" lon="10.422219698293612"><ele>257.0</ele><time>2026-04-04T09:28:19.999Z</time></trkpt><trkpt lat="43.44278137809184" lon="10.422275046259074"><ele>257.0</ele><time>2026-04-04T09:28:20.999Z</time></trkpt><trkpt lat="43.44282639413883" lon="10.42233805777315"><ele>257.0</ele><time>2026-04-04T09:28:21.999Z</time></trkpt><trkpt lat="43.44283976562335" lon="10.422430882590016"><ele>257.4</ele><time>2026-04-04T09:28:22.999Z</time></trkpt><trkpt lat="43.44282502039699" lon="10.422522408923507"><ele>257.79999999999995</ele><time>2026-04-04T09:28:23.999Z</time></trkpt><trkpt lat="43.44278293694194" lon="10.422643029701868"><ele>258.2</ele><time>2026-04-04T09:28:24.999Z</time></trkpt><trkpt lat="43.44270327096299" lon="10.422754872721299"><ele>258.59999999999997</ele><time>2026-04-04T09:28:25.999Z</time></trkpt><trkpt lat="43.44263538588829" lon="10.422880396422407"><ele>259.0</ele><time>2026-04-04T09:28:26.999Z</time></trkpt><trkpt lat="43.442562294756286" lon="10.422984156952104"><ele>258.0</ele><time>2026-04-04T09:28:27.999Z</time></trkpt><trkpt lat="43.44249657973158" lon="10.423121939736262"><ele>257.0</ele><time>2026-04-04T09:28:28.999Z</time></trkpt><trkpt lat="43.44245268719168" lon="10.423262071359234"><ele>255.99999999999997</ele><time>2026-04-04T09:28:29.999Z</time></trkpt><trkpt lat="43.44242232508017" lon="10.423398111762273"><ele>255.0</ele><time>2026-04-04T09:28:30.999Z</time></trkpt><trkpt lat="43.442411349590564" lon="10.42354367713125"><ele>254.0</ele><time>2026-04-04T09:28:31.999Z</time></trkpt><trkpt lat="43.44239243487038" lon="10.423690824368805"><ele>254.6</ele><time>2026-04-04T09:28:32.999Z</time></trkpt><trkpt lat="43.44239636585883" lon="10.4238209842476"><ele>255.2</ele><time>2026-04-04T09:28:33.999Z</time></trkpt><trkpt lat="43.44241556135789" lon="10.423955586261817"><ele>255.79999999999998</ele><time>2026-04-04T09:28:34.999Z</time></trkpt><trkpt lat="43.442426927772765" lon="10.424104427600355"><ele>256.4</ele><time>2026-04-04T09:28:35.999Z</time></trkpt><trkpt lat="43.44243088852012" lon="10.424273270660992"><ele>257.0</ele><time>2026-04-04T09:28:36.999Z</time></trkpt><trkpt lat="43.44245971729624" lon="10.424440710586609"><ele>257.0</ele><time>2026-04-04T09:28:37.999Z</time></trkpt><trkpt lat="43.44249709587875" lon="10.424597554539043"><ele>257.0</ele><time>2026-04-04T09:28:38.999Z</time></trkpt><trkpt lat="43.44252081830518" lon="10.42474679060033"><ele>257.0</ele><time>2026-04-04T09:28:39.999Z</time></trkpt><trkpt lat="43.44255725948399" lon="10.424886553973254"><ele>257.0</ele><time>2026-04-04T09:28:40.999Z</time></trkpt><trkpt lat="43.44259789920631" lon="10.424985993158634"><ele>257.0</ele><time>2026-04-04T09:28:41.999Z</time></trkpt><trkpt lat="43.44266164404795" lon="10.425071145985683"><ele>256.8</ele><time>2026-04-04T09:28:42.999Z</time></trkpt><trkpt lat="43.44275521929324" lon="10.425149754036061"><ele>256.6</ele><time>2026-04-04T09:28:43.999Z</time></trkpt><trkpt lat="43.44284205909992" lon="10.425231237815293"><ele>256.40000000000003</ele><time>2026-04-04T09:28:44.999Z</time></trkpt><trkpt lat="43.442902321857176" lon="10.42529705676382"><ele>256.2</ele><time>2026-04-04T09:28:45.999Z</time></trkpt><trkpt lat="43.44299539502519" lon="10.425370676490292"><ele>256.0</ele><time>2026-04-04T09:28:47.999Z</time></trkpt><trkpt lat="43.44305924568198" lon="10.425393464272556"><ele>258.25</ele><time>2026-04-04T09:28:48.999Z</time></trkpt><trkpt lat="43.44310586356821" lon="10.425580391351255"><ele>260.5</ele><time>2026-04-04T09:28:50.999Z</time></trkpt><trkpt lat="43.443095767183216" lon="10.425744046129033"><ele>262.75</ele><time>2026-04-04T09:28:51.999Z</time></trkpt><trkpt lat="43.44307001522597" lon="10.425913230362873"><ele>265.0</ele><time>2026-04-04T09:28:52.999Z</time></trkpt><trkpt lat="43.44303009312225" lon="10.426050693188607"><ele>265.0</ele><time>2026-04-04T09:28:53.999Z</time></trkpt><trkpt lat="43.442986826549095" lon="10.426162619537626"><ele>265.0</ele><time>2026-04-04T09:28:54.999Z</time></trkpt><trkpt lat="43.442983233100676" lon="10.426273778087722"><ele>265.0</ele><time>2026-04-04T09:28:55.999Z</time></trkpt><trkpt lat="43.443002836248006" lon="10.426375260970536"><ele>265.0</ele><time>2026-04-04T09:28:56.999Z</time></trkpt><trkpt lat="43.44301766796833" lon="10.426470740890792"><ele>265.0</ele><time>2026-04-04T09:28:57.999Z</time></trkpt><trkpt lat="43.44301422207651" lon="10.426622417858836"><ele>265.0</ele><time>2026-04-04T09:28:59.998Z</time></trkpt><trkpt lat="43.44302870719444" lon="10.426710528383541"><ele>265.0</ele><time>2026-04-04T09:29:00.998Z</time></trkpt><trkpt lat="43.442964429233356" lon="10.426777391495984"><ele>265.0</ele><time>2026-04-04T09:29:02.998Z</time></trkpt><trkpt lat="43.44289606998793" lon="10.426796685905492"><ele>265.0</ele><time>2026-04-04T09:29:03.998Z</time></trkpt><trkpt lat="43.442795940988916" lon="10.426877732779506"><ele>265.0</ele><time>2026-04-04T09:29:04.998Z</time></trkpt><trkpt lat="43.442700591599454" lon="10.42696637618227"><ele>265.0</ele><time>2026-04-04T09:29:05.998Z</time></trkpt><trkpt lat="43.44261356456094" lon="10.427045417105793"><ele>266.6</ele><time>2026-04-04T09:29:06.998Z</time></trkpt><trkpt lat="43.44254596579853" lon="10.427164671627603"><ele>268.2</ele><time>2026-04-04T09:29:07.998Z</time></trkpt><trkpt lat="43.442508662326084" lon="10.427270465447311"><ele>269.8</ele><time>2026-04-04T09:29:08.998Z</time></trkpt><trkpt lat="43.44247684573559" lon="10.42738749881431"><ele>271.4</ele><time>2026-04-04T09:29:09.998Z</time></trkpt><trkpt lat="43.44245211496166" lon="10.427515856165964"><ele>273.0</ele><time>2026-04-04T09:29:10.998Z</time></trkpt><trkpt lat="43.44244964061715" lon="10.427662562438814"><ele>273.0</ele><time>2026-04-04T09:29:11.998Z</time></trkpt><trkpt lat="43.44244703676333" lon="10.427780498613174"><ele>273.0</ele><time>2026-04-04T09:29:12.998Z</time></trkpt><trkpt lat="43.442434267143234" lon="10.427893901470707"><ele>273.0</ele><time>2026-04-04T09:29:13.998Z</time></trkpt><trkpt lat="43.442436241043296" lon="10.428038341534755"><ele>273.0</ele><time>2026-04-04T09:29:14.998Z</time></trkpt><trkpt lat="43.44244592899928" lon="10.428192942089838"><ele>273.0</ele><time>2026-04-04T09:29:15.998Z</time></trkpt><trkpt lat="43.44245391959728" lon="10.428334791418695"><ele>274.4</ele><time>2026-04-04T09:29:16.998Z</time></trkpt><trkpt lat="43.44244879110544" lon="10.428456225547645"><ele>275.8</ele><time>2026-04-04T09:29:17.998Z</time></trkpt><trkpt lat="43.44245494625114" lon="10.428613457701976"><ele>277.2</ele><time>2026-04-04T09:29:18.998Z</time></trkpt><trkpt lat="43.44245598851489" lon="10.42876746409966"><ele>278.6</ele><time>2026-04-04T09:29:19.998Z</time></trkpt><trkpt lat="43.44242657022" lon="10.428887522213593"><ele>280.0</ele><time>2026-04-04T09:29:20.998Z</time></trkpt><trkpt lat="43.44237152869796" lon="10.428971019946141"><ele>281.8333333333333</ele><time>2026-04-04T09:29:21.998Z</time></trkpt><trkpt lat="43.44230142912897" lon="10.429034244646871"><ele>283.66666666666663</ele><time>2026-04-04T09:29:22.998Z</time></trkpt><trkpt lat="43.442243637279866" lon="10.429187877889659"><ele>285.5</ele><time>2026-04-04T09:29:24.998Z</time></trkpt><trkpt lat="43.442231542120695" lon="10.429296431135855"><ele>287.3333333333333</ele><time>2026-04-04T09:29:25.998Z</time></trkpt><trkpt lat="43.442208492338025" lon="10.4293973836221"><ele>289.1666666666667</ele><time>2026-04-04T09:29:26.998Z</time></trkpt><trkpt lat="43.442216122681536" lon="10.429484240614832"><ele>291.0</ele><time>2026-04-04T09:29:27.998Z</time></trkpt><trkpt lat="43.44224152839418" lon="10.429575362063078"><ele>292.2</ele><time>2026-04-04T09:29:28.998Z</time></trkpt><trkpt lat="43.44228976274919" lon="10.42968026361397"><ele>293.40000000000003</ele><time>2026-04-04T09:29:29.998Z</time></trkpt><trkpt lat="43.44229801975748" lon="10.429779186552546"><ele>294.6</ele><time>2026-04-04T09:29:30.998Z</time></trkpt><trkpt lat="43.44228177762699" lon="10.429906517044293"><ele>295.8</ele><time>2026-04-04T09:29:31.998Z</time></trkpt><trkpt lat="43.442268563374874" lon="10.430044632159998"><ele>297.0</ele><time>2026-04-04T09:29:32.998Z</time></trkpt><trkpt lat="43.4422712873057" lon="10.430179094624966"><ele>297.0</ele><time>2026-04-04T09:29:33.998Z</time></trkpt><trkpt lat="43.44226033810846" lon="10.430273692371426"><ele>297.0</ele><time>2026-04-04T09:29:34.998Z</time></trkpt><trkpt lat="43.44222339301559" lon="10.430355796732279"><ele>297.0</ele><time>2026-04-04T09:29:35.998Z</time></trkpt><trkpt lat="43.44214573849804" lon="10.430433734097338"><ele>297.0</ele><time>2026-04-04T09:29:36.998Z</time></trkpt><trkpt lat="43.44207840937644" lon="10.430527455790997"><ele>297.0</ele><time>2026-04-04T09:29:37.998Z</time></trkpt><trkpt lat="43.442018047048705" lon="10.43060300067643"><ele>297.0</ele><time>2026-04-04T09:29:38.998Z</time></trkpt><trkpt lat="43.44196010397516" lon="10.430677949794616"><ele>295.0</ele><time>2026-04-04T09:29:39.998Z</time></trkpt><trkpt lat="43.441901720619036" lon="10.430814461935304"><ele>293.0</ele><time>2026-04-04T09:29:40.998Z</time></trkpt><trkpt lat="43.441871605506996" lon="10.430978361897994"><ele>291.0</ele><time>2026-04-04T09:29:41.998Z</time></trkpt><trkpt lat="43.44187484482708" lon="10.431112525633067"><ele>289.0</ele><time>2026-04-04T09:29:42.998Z</time></trkpt><trkpt lat="43.44187483262513" lon="10.431248707383016"><ele>287.0</ele><time>2026-04-04T09:29:43.998Z</time></trkpt><trkpt lat="43.44188885533936" lon="10.431384164030563"><ele>287.0</ele><time>2026-04-04T09:29:44.997Z</time></trkpt><trkpt lat="43.44189570659866" lon="10.431545478884578"><ele>287.0</ele><time>2026-04-04T09:29:45.997Z</time></trkpt><trkpt lat="43.44192395920046" lon="10.431665173154444"><ele>287.0</ele><time>2026-04-04T09:29:46.997Z</time></trkpt><trkpt lat="43.44195169974852" lon="10.431749229282381"><ele>287.0</ele><time>2026-04-04T09:29:47.997Z</time></trkpt><trkpt lat="43.44194763253326" lon="10.431866076714714"><ele>287.0</ele><time>2026-04-04T09:29:48.997Z</time></trkpt><trkpt lat="43.4419215082799" lon="10.432020256176898"><ele>287.6</ele><time>2026-04-04T09:29:49.997Z</time></trkpt><trkpt lat="43.441891554221066" lon="10.43217872525207"><ele>288.2</ele><time>2026-04-04T09:29:50.997Z</time></trkpt><trkpt lat="43.44188076909054" lon="10.432314161652364"><ele>288.8</ele><time>2026-04-04T09:29:51.997Z</time></trkpt><trkpt lat="43.44186857422817" lon="10.432405953889486"><ele>289.4</ele><time>2026-04-04T09:29:52.997Z</time></trkpt><trkpt lat="43.44181982386065" lon="10.432525679807878"><ele>290.0</ele><time>2026-04-04T09:29:55Z</time></trkpt><trkpt lat="43.44169313277541" lon="10.432584719715035"><ele>290.0</ele><time>2026-04-04T09:29:57Z</time></trkpt><trkpt lat="43.44159312751149" lon="10.432613912289614"><ele>290.0</ele><time>2026-04-04T09:29:58Z</time></trkpt><trkpt lat="43.44150504584618" lon="10.432637731779591"><ele>290.0</ele><time>2026-04-04T09:29:59Z</time></trkpt><trkpt lat="43.44142127838281" lon="10.432690629675283"><ele>290.0</ele><time>2026-04-04T09:30:00Z</time></trkpt><trkpt lat="43.44134523878018" lon="10.432760903522432"><ele>290.0</ele><time>2026-04-04T09:30:01Z</time></trkpt><trkpt lat="43.441263654756284" lon="10.432831942186132"><ele>292.0</ele><time>2026-04-04T09:30:02Z</time></trkpt><trkpt lat="43.44118724593172" lon="10.432847282498757"><ele>294.0</ele><time>2026-04-04T09:30:03Z</time></trkpt><trkpt lat="43.44112254951832" lon="10.43280577078599"><ele>296.0</ele><time>2026-04-04T09:30:04Z</time></trkpt><trkpt lat="43.44106125671211" lon="10.43276563777762"><ele>298.0</ele><time>2026-04-04T09:30:05Z</time></trkpt><trkpt lat="43.44098984181419" lon="10.432747653294735"><ele>300.0</ele><time>2026-04-04T09:30:06Z</time></trkpt><trkpt lat="43.440896217799455" lon="10.432775274539209"><ele>302.0</ele><time>2026-04-04T09:30:07Z</time></trkpt><trkpt lat="43.44080929442336" lon="10.43280053329641"><ele>302.0</ele><time>2026-04-04T09:30:08Z</time></trkpt><trkpt lat="43.440732818685326" lon="10.43281389162315"><ele>302.0</ele><time>2026-04-04T09:30:09Z</time></trkpt><trkpt lat="43.440659412880855" lon="10.43282049566535"><ele>302.0</ele><time>2026-04-04T09:30:10Z</time></trkpt><trkpt lat="43.44057532315592" lon="10.43282050179002"><ele>302.0</ele><time>2026-04-04T09:30:11Z</time></trkpt><trkpt lat="43.44048441304159" lon="10.432825743704754"><ele>302.0</ele><time>2026-04-04T09:30:12Z</time></trkpt><trkpt lat="43.44037643905525" lon="10.432815502473655"><ele>302.0</ele><time>2026-04-04T09:30:13Z</time></trkpt><trkpt lat="43.44028239726841" lon="10.432784915663065"><ele>302.6666666666667</ele><time>2026-04-04T09:30:14Z</time></trkpt><trkpt lat="43.440195048075246" lon="10.4327604645837"><ele>303.33333333333337</ele><time>2026-04-04T09:30:15Z</time></trkpt><trkpt lat="43.440123826769536" lon="10.432760564717533"><ele>304.0</ele><time>2026-04-04T09:30:16Z</time></trkpt><trkpt lat="43.44005041865427" lon="10.432792087207108"><ele>304.6666666666667</ele><time>2026-04-04T09:30:17Z</time></trkpt><trkpt lat="43.43995480909495" lon="10.432809880187145"><ele>305.3333333333333</ele><time>2026-04-04T09:30:18Z</time></trkpt><trkpt lat="43.439842857885985" lon="10.432783491012156"><ele>306.0</ele><time>2026-04-04T09:30:18.999Z</time></trkpt><trkpt lat="43.439747171392945" lon="10.432711630117744"><ele>306.0</ele><time>2026-04-04T09:30:19.999Z</time></trkpt><trkpt lat="43.43963692638247" lon="10.432656985530633"><ele>306.0</ele><time>2026-04-04T09:30:21.999Z</time></trkpt><trkpt lat="43.43957177691806" lon="10.43270769756741"><ele>306.0</ele><time>2026-04-04T09:30:22.999Z</time></trkpt><trkpt lat="43.439542527358476" lon="10.432938266368273"><ele>306.0</ele><time>2026-04-04T09:30:24.999Z</time></trkpt><trkpt lat="43.43950907567072" lon="10.433083072176993"><ele>307.3333333333333</ele><time>2026-04-04T09:30:25.999Z</time></trkpt><trkpt lat="43.439441687631366" lon="10.433167151398697"><ele>308.6666666666667</ele><time>2026-04-04T09:30:26.999Z</time></trkpt><trkpt lat="43.43939128353499" lon="10.433242313624174"><ele>310.0</ele><time>2026-04-04T09:30:27.999Z</time></trkpt><trkpt lat="43.439370738324214" lon="10.433348292421854"><ele>311.33333333333337</ele><time>2026-04-04T09:30:28.999Z</time></trkpt><trkpt lat="43.43933521316481" lon="10.433432530197972"><ele>312.6666666666667</ele><time>2026-04-04T09:30:29.999Z</time></trkpt><trkpt lat="43.43927187480726" lon="10.433515439301546"><ele>314.0</ele><time>2026-04-04T09:30:30.999Z</time></trkpt><trkpt lat="43.43919532648248" lon="10.433610936720761"><ele>314.0</ele><time>2026-04-04T09:30:31.999Z</time></trkpt><trkpt lat="43.43909559385855" lon="10.4336605446519"><ele>314.0</ele><time>2026-04-04T09:30:32.999Z</time></trkpt><trkpt lat="43.438979191188174" lon="10.433674398158102"><ele>314.0</ele><time>2026-04-04T09:30:33.999Z</time></trkpt><trkpt lat="43.43884793734678" lon="10.433687117833285"><ele>314.0</ele><time>2026-04-04T09:30:34.999Z</time></trkpt><trkpt lat="43.43874175806708" lon="10.433723501392201"><ele>315.2</ele><time>2026-04-04T09:30:35.999Z</time></trkpt><trkpt lat="43.438647247428925" lon="10.433736602565657"><ele>316.4</ele><time>2026-04-04T09:30:36.999Z</time></trkpt><trkpt lat="43.438552080450286" lon="10.433764671358121"><ele>317.6</ele><time>2026-04-04T09:30:37.999Z</time></trkpt><trkpt lat="43.43845796663173" lon="10.43380437306367"><ele>318.8</ele><time>2026-04-04T09:30:38.999Z</time></trkpt><trkpt lat="43.43837854536405" lon="10.433832080064422"><ele>320.0</ele><time>2026-04-04T09:30:39.999Z</time></trkpt><trkpt lat="43.438294642981226" lon="10.43383511132861"><ele>320.0</ele><time>2026-04-04T09:30:40.999Z</time></trkpt><trkpt lat="43.43816795453539" lon="10.433779931650891"><ele>320.0</ele><time>2026-04-04T09:30:41.999Z</time></trkpt><trkpt lat="43.43801738143796" lon="10.433735600788564"><ele>320.0</ele><time>2026-04-04T09:30:42.999Z</time></trkpt><trkpt lat="43.43789366904635" lon="10.433733489162353"><ele>320.0</ele><time>2026-04-04T09:30:43.999Z</time></trkpt><trkpt lat="43.43779987052602" lon="10.43373265393333"><ele>320.0</ele><time>2026-04-04T09:30:44.999Z</time></trkpt><trkpt lat="43.437718054764694" lon="10.433754451478656"><ele>320.0</ele><time>2026-04-04T09:30:45.999Z</time></trkpt><trkpt lat="43.43763725637293" lon="10.433781467452325"><ele>320.0</ele><time>2026-04-04T09:30:46.999Z</time></trkpt><trkpt lat="43.43753520608655" lon="10.433700281628488"><ele>320.0</ele><time>2026-04-04T09:30:48.999Z</time></trkpt><trkpt lat="43.43747635327177" lon="10.433584812744524"><ele>320.0</ele><time>2026-04-04T09:30:49.999Z</time></trkpt><trkpt lat="43.437441784105964" lon="10.433469443171806"><ele>320.0</ele><time>2026-04-04T09:30:50.999Z</time></trkpt><trkpt lat="43.43740502452139" lon="10.433336697773507"><ele>320.0</ele><time>2026-04-04T09:30:51.999Z</time></trkpt><trkpt lat="43.43737177757553" lon="10.43320328203067"><ele>320.0</ele><time>2026-04-04T09:30:52.999Z</time></trkpt><trkpt lat="43.43733341702817" lon="10.433052528499573"><ele>320.0</ele><time>2026-04-04T09:30:53.999Z</time></trkpt><trkpt lat="43.43729023665637" lon="10.43291890919028"><ele>320.0</ele><time>2026-04-04T09:30:54.999Z</time></trkpt><trkpt lat="43.43723236831545" lon="10.432791568363905"><ele>322.4</ele><time>2026-04-04T09:30:55.999Z</time></trkpt><trkpt lat="43.43715110159978" lon="10.432664316747227"><ele>324.8</ele><time>2026-04-04T09:30:56.999Z</time></trkpt><trkpt lat="43.437071228053725" lon="10.432528487203694"><ele>327.20000000000005</ele><time>2026-04-04T09:30:57.999Z</time></trkpt><trkpt lat="43.43700444604116" lon="10.432420694243907"><ele>329.6</ele><time>2026-04-04T09:30:58.999Z</time></trkpt><trkpt lat="43.43694151754227" lon="10.432332451794306"><ele>332.0</ele><time>2026-04-04T09:30:59.999Z</time></trkpt><trkpt lat="43.43690253795216" lon="10.432251984730218"><ele>333.6</ele><time>2026-04-04T09:31:00.999Z</time></trkpt><trkpt lat="43.43692114031632" lon="10.432127679957569"><ele>335.20000000000005</ele><time>2026-04-04T09:31:02.999Z</time></trkpt><trkpt lat="43.43696226451029" lon="10.432058435733746"><ele>336.8</ele><time>2026-04-04T09:31:03.998Z</time></trkpt><trkpt lat="43.43696672134792" lon="10.431931420276014"><ele>338.4</ele><time>2026-04-04T09:31:05.998Z</time></trkpt><trkpt lat="43.4368625126916" lon="10.431806690191998"><ele>340.0</ele><time>2026-04-04T09:31:07.998Z</time></trkpt><trkpt lat="43.43678949474355" lon="10.431728193505956"><ele>340.0</ele><time>2026-04-04T09:31:08.998Z</time></trkpt><trkpt lat="43.43669386673639" lon="10.431713467756158"><ele>340.0</ele><time>2026-04-04T09:31:09.998Z</time></trkpt><trkpt lat="43.43661444666396" lon="10.431746861792627"><ele>340.0</ele><time>2026-04-04T09:31:10.998Z</time></trkpt><trkpt lat="43.43650532769521" lon="10.431833745647637"><ele>340.0</ele><time>2026-04-04T09:31:11.998Z</time></trkpt><trkpt lat="43.43642589938304" lon="10.43186852624446"><ele>340.0</ele><time>2026-04-04T09:31:12.998Z</time></trkpt><trkpt lat="43.43634183686233" lon="10.431813281840999"><ele>341.8</ele><time>2026-04-04T09:31:14.998Z</time></trkpt><trkpt lat="43.436225164545945" lon="10.431710344962758"><ele>343.6</ele><time>2026-04-04T09:31:16.998Z</time></trkpt><trkpt lat="43.43615464845757" lon="10.431648958732607"><ele>345.4</ele><time>2026-04-04T09:31:17.998Z</time></trkpt><trkpt lat="43.436092247540664" lon="10.431594337085091"><ele>347.2</ele><time>2026-04-04T09:31:18.998Z</time></trkpt><trkpt lat="43.43598482998037" lon="10.43154588418212"><ele>349.0</ele><time>2026-04-04T09:31:20.998Z</time></trkpt><trkpt lat="43.43590907219488" lon="10.431492152977235"><ele>349.0</ele><time>2026-04-04T09:31:21.998Z</time></trkpt><trkpt lat="43.43580863424625" lon="10.431433000482237"><ele>349.0</ele><time>2026-04-04T09:31:22.998Z</time></trkpt><trkpt lat="43.43574143984243" lon="10.43139761569255"><ele>349.0</ele><time>2026-04-04T09:31:23.998Z</time></trkpt><trkpt lat="43.43566133061774" lon="10.431377521989283"><ele>349.0</ele><time>2026-04-04T09:31:24.998Z</time></trkpt><trkpt lat="43.43558134672321" lon="10.431361954844906"><ele>349.0</ele><time>2026-04-04T09:31:25.998Z</time></trkpt><trkpt lat="43.43550006957308" lon="10.431345853510868"><ele>349.0</ele><time>2026-04-04T09:31:26.998Z</time></trkpt><trkpt lat="43.43543102093853" lon="10.43131702395482"><ele>351.16666666666663</ele><time>2026-04-04T09:31:27.998Z</time></trkpt><trkpt lat="43.43537544510616" lon="10.43126508714476"><ele>353.3333333333333</ele><time>2026-04-04T09:31:28.998Z</time></trkpt><trkpt lat="43.43531477268668" lon="10.431201668954358"><ele>355.5</ele><time>2026-04-04T09:31:29.998Z</time></trkpt><trkpt lat="43.43523534101247" lon="10.431158316409284"><ele>357.6666666666667</ele><time>2026-04-04T09:31:30.998Z</time></trkpt><trkpt lat="43.43514871343985" lon="10.431101460507417"><ele>359.83333333333337</ele><time>2026-04-04T09:31:31.998Z</time></trkpt><trkpt lat="43.435050775286854" lon="10.431031123786237"><ele>362.0</ele><time>2026-04-04T09:31:32.998Z</time></trkpt><trkpt lat="43.43495217399149" lon="10.430964345096902"><ele>362.0</ele><time>2026-04-04T09:31:33.998Z</time></trkpt><trkpt lat="43.43487053057554" lon="10.43088981632096"><ele>362.0</ele><time>2026-04-04T09:31:34.998Z</time></trkpt><trkpt lat="43.43477772342741" lon="10.430797435409382"><ele>362.0</ele><time>2026-04-04T09:31:35.998Z</time></trkpt><trkpt lat="43.4346688108663" lon="10.4306925948846"><ele>362.0</ele><time>2026-04-04T09:31:36.998Z</time></trkpt><trkpt lat="43.4345472196313" lon="10.430599496340358"><ele>361.40000000000003</ele><time>2026-04-04T09:31:37.998Z</time></trkpt><trkpt lat="43.43443756434434" lon="10.430543889118532"><ele>360.8</ele><time>2026-04-04T09:31:38.998Z</time></trkpt><trkpt lat="43.43433845343252" lon="10.43052628980518"><ele>360.2</ele><time>2026-04-04T09:31:39.998Z</time></trkpt><trkpt lat="43.43425311808043" lon="10.43050402292949"><ele>359.6</ele><time>2026-04-04T09:31:40.998Z</time></trkpt><trkpt lat="43.43417358351456" lon="10.43045563481695"><ele>359.0</ele><time>2026-04-04T09:31:41.998Z</time></trkpt><trkpt lat="43.43412455162977" lon="10.430381138624591"><ele>360.0</ele><time>2026-04-04T09:31:42.998Z</time></trkpt><trkpt lat="43.434103690917794" lon="10.430292598108252"><ele>361.0</ele><time>2026-04-04T09:31:43.998Z</time></trkpt><trkpt lat="43.43406642333681" lon="10.430152023712338"><ele>362.0</ele><time>2026-04-04T09:31:45.998Z</time></trkpt><trkpt lat="43.434031661531165" lon="10.430037170537291"><ele>363.0</ele><time>2026-04-04T09:31:47.998Z</time></trkpt><trkpt lat="43.433969560725664" lon="10.429977428048645"><ele>364.0</ele><time>2026-04-04T09:31:49.997Z</time></trkpt><trkpt lat="43.4339011561283" lon="10.429896152431581"><ele>365.0</ele><time>2026-04-04T09:31:53.997Z</time></trkpt><trkpt lat="43.433964890630854" lon="10.429955021723847"><ele>365.0</ele><time>2026-04-04T09:36:58.999Z</time></trkpt><trkpt lat="43.4339064936519" lon="10.42991838059884"><ele>365.0</ele><time>2026-04-04T09:51:23.999Z</time></trkpt><trkpt lat="43.43397442208438" lon="10.430020287796816"><ele>365.0</ele><time>2026-04-04T09:52:54.997Z</time></trkpt><trkpt lat="43.434063182097205" lon="10.430088836197838"><ele>365.0</ele><time>2026-04-04T09:52:56.997Z</time></trkpt><trkpt lat="43.43413192641423" lon="10.43014239444226"><ele>365.0</ele><time>2026-04-04T09:52:59Z</time></trkpt><trkpt lat="43.43420680953349" lon="10.430202001347267"><ele>365.0</ele><time>2026-04-04T09:53:02Z</time></trkpt><trkpt lat="43.43415772821776" lon="10.430277728399906"><ele>365.0</ele><time>2026-04-04T09:53:05Z</time></trkpt><trkpt lat="43.434116700936634" lon="10.430365588468161"><ele>365.0</ele><time>2026-04-04T09:53:07Z</time></trkpt><trkpt lat="43.434159291927756" lon="10.430455562669573"><ele>365.0</ele><time>2026-04-04T09:53:09Z</time></trkpt><trkpt lat="43.43427016630626" lon="10.430544703861564"><ele>365.0</ele><time>2026-04-04T09:53:11Z</time></trkpt><trkpt lat="43.434334526915194" lon="10.430575502242572"><ele>365.0</ele><time>2026-04-04T09:53:12Z</time></trkpt><trkpt lat="43.4344034682941" lon="10.430577995943402"><ele>365.0</ele><time>2026-04-04T09:53:12.999Z</time></trkpt><trkpt lat="43.434479911372875" lon="10.430581687645986"><ele>364.4</ele><time>2026-04-04T09:53:13.999Z</time></trkpt><trkpt lat="43.43454996817792" lon="10.430606295506129"><ele>363.8</ele><time>2026-04-04T09:53:14.999Z</time></trkpt><trkpt lat="43.43460443516676" lon="10.43065837211681"><ele>363.20000000000005</ele><time>2026-04-04T09:53:15.999Z</time></trkpt><trkpt lat="43.434686565893294" lon="10.430718868515983"><ele>362.6</ele><time>2026-04-04T09:53:17.999Z</time></trkpt><trkpt lat="43.43481749961458" lon="10.430811035519039"><ele>362.0</ele><time>2026-04-04T09:53:19.999Z</time></trkpt><trkpt lat="43.43488870663654" lon="10.430899485007302"><ele>362.0</ele><time>2026-04-04T09:53:20.999Z</time></trkpt><trkpt lat="43.4349488286018" lon="10.43097621327873"><ele>362.0</ele><time>2026-04-04T09:53:21.999Z</time></trkpt><trkpt lat="43.43501933126383" lon="10.431042606436462"><ele>362.0</ele><time>2026-04-04T09:53:22.999Z</time></trkpt><trkpt lat="43.435107948135574" lon="10.43109863354484"><ele>362.0</ele><time>2026-04-04T09:53:23.999Z</time></trkpt><trkpt lat="43.43519278606195" lon="10.431149060882325"><ele>362.0</ele><time>2026-04-04T09:53:24.999Z</time></trkpt><trkpt lat="43.43526132009987" lon="10.431193170992284"><ele>362.0</ele><time>2026-04-04T09:53:25.999Z</time></trkpt><trkpt lat="43.43533495527317" lon="10.431240455314544"><ele>362.0</ele><time>2026-04-04T09:53:26.999Z</time></trkpt><trkpt lat="43.43539977349005" lon="10.43128360630292"><ele>362.0</ele><time>2026-04-04T09:53:27.999Z</time></trkpt><trkpt lat="43.435464933491005" lon="10.431326079714438"><ele>362.0</ele><time>2026-04-04T09:53:28.999Z</time></trkpt><trkpt lat="43.43554091649873" lon="10.431364794075941"><ele>362.0</ele><time>2026-04-04T09:53:29.999Z</time></trkpt><trkpt lat="43.43561021033471" lon="10.431386842049204"><ele>362.0</ele><time>2026-04-04T09:53:30.999Z</time></trkpt><trkpt lat="43.435675608321695" lon="10.431394053899346"><ele>362.0</ele><time>2026-04-04T09:53:31.999Z</time></trkpt><trkpt lat="43.43580534629442" lon="10.431439246286253"><ele>359.83333333333337</ele><time>2026-04-04T09:53:33.999Z</time></trkpt><trkpt lat="43.43587611772709" lon="10.43146596519403"><ele>357.6666666666667</ele><time>2026-04-04T09:53:34.999Z</time></trkpt><trkpt lat="43.43594430332037" lon="10.431509320301709"><ele>355.5</ele><time>2026-04-04T09:53:35.999Z</time></trkpt><trkpt lat="43.43601259553798" lon="10.431550581738007"><ele>353.3333333333333</ele><time>2026-04-04T09:53:36.999Z</time></trkpt><trkpt lat="43.43607342558257" lon="10.431597550995129"><ele>351.16666666666663</ele><time>2026-04-04T09:53:37.999Z</time></trkpt><trkpt lat="43.43613031880664" lon="10.431635495463768"><ele>349.0</ele><time>2026-04-04T09:53:38.999Z</time></trkpt><trkpt lat="43.43621577153719" lon="10.431715585057603"><ele>349.0</ele><time>2026-04-04T09:53:40.999Z</time></trkpt><trkpt lat="43.43629515244506" lon="10.431779242182966"><ele>349.0</ele><time>2026-04-04T09:53:42.999Z</time></trkpt><trkpt lat="43.4363908535621" lon="10.431847429495173"><ele>349.0</ele><time>2026-04-04T09:53:44.999Z</time></trkpt><trkpt lat="43.436456083553615" lon="10.431850499433263"><ele>349.0</ele><time>2026-04-04T09:53:45.999Z</time></trkpt><trkpt lat="43.43653385708908" lon="10.431825874707256"><ele>349.0</ele><time>2026-04-04T09:53:46.999Z</time></trkpt><trkpt lat="43.436610440822804" lon="10.431775976718068"><ele>349.0</ele><time>2026-04-04T09:53:47.999Z</time></trkpt><trkpt lat="43.43666783991551" lon="10.431723817082593"><ele>347.2</ele><time>2026-04-04T09:53:48.999Z</time></trkpt><trkpt lat="43.43680437431118" lon="10.431749120934562"><ele>345.4</ele><time>2026-04-04T09:53:50.999Z</time></trkpt><trkpt lat="43.43686258767957" lon="10.431801577180451"><ele>343.6</ele><time>2026-04-04T09:53:51.999Z</time></trkpt><trkpt lat="43.43693493334311" lon="10.431930692760064"><ele>341.8</ele><time>2026-04-04T09:53:53.999Z</time></trkpt><trkpt lat="43.436960007150255" lon="10.432034300824705"><ele>340.0</ele><time>2026-04-04T09:53:55.999Z</time></trkpt><trkpt lat="43.43692745416114" lon="10.432175766666012"><ele>339.0</ele><time>2026-04-04T09:53:58.999Z</time></trkpt><trkpt lat="43.43692301156765" lon="10.432318820222243"><ele>338.0</ele><time>2026-04-04T09:54:00.998Z</time></trkpt><trkpt lat="43.437016931954396" lon="10.432458169038199"><ele>337.0</ele><time>2026-04-04T09:54:02.998Z</time></trkpt><trkpt lat="43.43709354712391" lon="10.432541954162499"><ele>336.0</ele><time>2026-04-04T09:54:03.998Z</time></trkpt><trkpt lat="43.43716357204473" lon="10.432652416478321"><ele>335.0</ele><time>2026-04-04T09:54:04.998Z</time></trkpt><trkpt lat="43.43721192988644" lon="10.432759679096824"><ele>335.0</ele><time>2026-04-04T09:54:05.998Z</time></trkpt><trkpt lat="43.43724500877498" lon="10.432842083899404"><ele>335.0</ele><time>2026-04-04T09:54:06.998Z</time></trkpt><trkpt lat="43.43729162327018" lon="10.432947240000674"><ele>335.0</ele><time>2026-04-04T09:54:08.998Z</time></trkpt><trkpt lat="43.437335615329744" lon="10.433038905979762"><ele>335.0</ele><time>2026-04-04T09:54:10.998Z</time></trkpt><trkpt lat="43.43736604823974" lon="10.433118901682299"><ele>335.0</ele><time>2026-04-04T09:54:12.998Z</time></trkpt><trkpt lat="43.437383363637345" lon="10.433212002639321"><ele>335.0</ele><time>2026-04-04T09:54:14.998Z</time></trkpt><trkpt lat="43.43741398404627" lon="10.433329598823903"><ele>332.0</ele><time>2026-04-04T09:54:16.998Z</time></trkpt><trkpt lat="43.43745169751715" lon="10.43345020667776"><ele>329.0</ele><time>2026-04-04T09:54:18.998Z</time></trkpt><trkpt lat="43.43749439397579" lon="10.43357150708592"><ele>326.0</ele><time>2026-04-04T09:54:20.998Z</time></trkpt><trkpt lat="43.437510791707304" lon="10.433682273123107"><ele>323.0</ele><time>2026-04-04T09:54:22.998Z</time></trkpt><trkpt lat="43.437450511334696" lon="10.433819140485507"><ele>320.0</ele><time>2026-04-04T09:54:24.998Z</time></trkpt><trkpt lat="43.4373882036465" lon="10.433864246793089"><ele>318.6</ele><time>2026-04-04T09:54:25.998Z</time></trkpt><trkpt lat="43.43729017937013" lon="10.433890837202858"><ele>317.2</ele><time>2026-04-04T09:54:26.998Z</time></trkpt><trkpt lat="43.43716881434346" lon="10.43389942353153"><ele>315.8</ele><time>2026-04-04T09:54:27.998Z</time></trkpt><trkpt lat="43.4370642890078" lon="10.433922950310732"><ele>314.4</ele><time>2026-04-04T09:54:28.998Z</time></trkpt><trkpt lat="43.436967540431965" lon="10.434002990554385"><ele>313.0</ele><time>2026-04-04T09:54:29.998Z</time></trkpt><trkpt lat="43.4368597160994" lon="10.434115313489507"><ele>313.0</ele><time>2026-04-04T09:54:30.998Z</time></trkpt><trkpt lat="43.43675983953877" lon="10.434204039542092"><ele>313.0</ele><time>2026-04-04T09:54:31.998Z</time></trkpt><trkpt lat="43.43667285257472" lon="10.43427593523484"><ele>313.0</ele><time>2026-04-04T09:54:32.998Z</time></trkpt><trkpt lat="43.43660566922089" lon="10.434332081326323"><ele>313.0</ele><time>2026-04-04T09:54:33.998Z</time></trkpt><trkpt lat="43.436553011971746" lon="10.434393121450656"><ele>313.0</ele><time>2026-04-04T09:54:34.998Z</time></trkpt><trkpt lat="43.43649614023858" lon="10.43444255419221"><ele>313.0</ele><time>2026-04-04T09:54:35.998Z</time></trkpt><trkpt lat="43.43642186577217" lon="10.434468612836078"><ele>313.0</ele><time>2026-04-04T09:54:36.998Z</time></trkpt><trkpt lat="43.43630804440596" lon="10.43444697809902"><ele>313.0</ele><time>2026-04-04T09:54:37.998Z</time></trkpt><trkpt lat="43.43620478321013" lon="10.434361490069712"><ele>313.0</ele><time>2026-04-04T09:54:38.998Z</time></trkpt><trkpt lat="43.43606382817457" lon="10.43431839697363"><ele>313.0</ele><time>2026-04-04T09:54:39.998Z</time></trkpt><trkpt lat="43.43591483889788" lon="10.434287008379638"><ele>313.0</ele><time>2026-04-04T09:54:40.998Z</time></trkpt><trkpt lat="43.43576766545287" lon="10.434281975448588"><ele>313.0</ele><time>2026-04-04T09:54:41.998Z</time></trkpt><trkpt lat="43.43562761786145" lon="10.434245857985974"><ele>313.0</ele><time>2026-04-04T09:54:42.998Z</time></trkpt><trkpt lat="43.43548910714943" lon="10.434189908203393"><ele>313.0</ele><time>2026-04-04T09:54:43.998Z</time></trkpt><trkpt lat="43.435358606936234" lon="10.434127336304627"><ele>312.75</ele><time>2026-04-04T09:54:44.998Z</time></trkpt><trkpt lat="43.43521624086594" lon="10.434061860618968"><ele>312.5</ele><time>2026-04-04T09:54:45.998Z</time></trkpt><trkpt lat="43.43508548933779" lon="10.43395671072584"><ele>312.25</ele><time>2026-04-04T09:54:46.997Z</time></trkpt><trkpt lat="43.43496458726394" lon="10.433851824442183"><ele>312.0</ele><time>2026-04-04T09:54:47.997Z</time></trkpt><trkpt lat="43.434841314652594" lon="10.433733077238337"><ele>312.0</ele><time>2026-04-04T09:54:48.997Z</time></trkpt><trkpt lat="43.43473177515455" lon="10.433612862404576"><ele>312.0</ele><time>2026-04-04T09:54:49.997Z</time></trkpt><trkpt lat="43.43463377343755" lon="10.433506816373368"><ele>312.0</ele><time>2026-04-04T09:54:50.997Z</time></trkpt><trkpt lat="43.4345445749632" lon="10.433416285234925"><ele>312.0</ele><time>2026-04-04T09:54:51.997Z</time></trkpt><trkpt lat="43.43444982527053" lon="10.433341047605762"><ele>309.75</ele><time>2026-04-04T09:54:52.997Z</time></trkpt><trkpt lat="43.434332271165864" lon="10.43333838131118"><ele>307.5</ele><time>2026-04-04T09:54:53.997Z</time></trkpt><trkpt lat="43.4342244099968" lon="10.433309915589204"><ele>305.25</ele><time>2026-04-04T09:54:54.997Z</time></trkpt><trkpt lat="43.43411685347276" lon="10.43323023655153"><ele>303.0</ele><time>2026-04-04T09:54:55.997Z</time></trkpt><trkpt lat="43.43403611424726" lon="10.433123950272895"><ele>303.0</ele><time>2026-04-04T09:54:56.997Z</time></trkpt><trkpt lat="43.43396486083141" lon="10.433029605898978"><ele>303.0</ele><time>2026-04-04T09:54:57.997Z</time></trkpt><trkpt lat="43.43390876760846" lon="10.432941285137218"><ele>303.0</ele><time>2026-04-04T09:54:58.997Z</time></trkpt><trkpt lat="43.43385160489268" lon="10.432862467003655"><ele>303.0</ele><time>2026-04-04T09:54:59.997Z</time></trkpt><trkpt lat="43.43377646318569" lon="10.432792528520833"><ele>303.0</ele><time>2026-04-04T09:55:00.997Z</time></trkpt><trkpt lat="43.433688655502166" lon="10.432738749903054"><ele>303.0</ele><time>2026-04-04T09:55:01.997Z</time></trkpt><trkpt lat="43.43361057986245" lon="10.432648779002944"><ele>303.0</ele><time>2026-04-04T09:55:02.999Z</time></trkpt><trkpt lat="43.433520129880065" lon="10.4325331329794"><ele>303.0</ele><time>2026-04-04T09:55:03.999Z</time></trkpt><trkpt lat="43.43341770356072" lon="10.432378613581566"><ele>303.0</ele><time>2026-04-04T09:55:04.999Z</time></trkpt><trkpt lat="43.43330354635237" lon="10.432203733137365"><ele>301.0</ele><time>2026-04-04T09:55:05.999Z</time></trkpt><trkpt lat="43.43320284846931" lon="10.432054488877172"><ele>299.0</ele><time>2026-04-04T09:55:06.999Z</time></trkpt><trkpt lat="43.43311955902421" lon="10.431945219952377"><ele>297.0</ele><time>2026-04-04T09:55:07.999Z</time></trkpt><trkpt lat="43.43302997222654" lon="10.431861976639992"><ele>295.0</ele><time>2026-04-04T09:55:08.999Z</time></trkpt><trkpt lat="43.43289699632296" lon="10.431832320029766"><ele>295.0</ele><time>2026-04-04T09:55:09.999Z</time></trkpt><trkpt lat="43.43280241659622" lon="10.431768615590428"><ele>295.0</ele><time>2026-04-04T09:55:10.999Z</time></trkpt><trkpt lat="43.43272524205438" lon="10.431691919321345"><ele>295.0</ele><time>2026-04-04T09:55:11.999Z</time></trkpt><trkpt lat="43.432673658669295" lon="10.431609730954584"><ele>295.0</ele><time>2026-04-04T09:55:12.999Z</time></trkpt><trkpt lat="43.4326327237282" lon="10.431478084990548"><ele>295.0</ele><time>2026-04-04T09:55:13.999Z</time></trkpt><trkpt lat="43.43257663981832" lon="10.431294696354998"><ele>297.75</ele><time>2026-04-04T09:55:14.999Z</time></trkpt><trkpt lat="43.43251454735667" lon="10.431107950056543"><ele>300.5</ele><time>2026-04-04T09:55:15.999Z</time></trkpt><trkpt lat="43.43245103292058" lon="10.430956931224976"><ele>303.25</ele><time>2026-04-04T09:55:16.999Z</time></trkpt><trkpt lat="43.43238338324978" lon="10.430806538944"><ele>306.0</ele><time>2026-04-04T09:55:17.999Z</time></trkpt><trkpt lat="43.43232052276007" lon="10.430670975933158"><ele>306.0</ele><time>2026-04-04T09:55:18.999Z</time></trkpt><trkpt lat="43.43225434123409" lon="10.430535279731814"><ele>306.0</ele><time>2026-04-04T09:55:19.999Z</time></trkpt><trkpt lat="43.4321717180028" lon="10.430393329032817"><ele>306.0</ele><time>2026-04-04T09:55:20.999Z</time></trkpt><trkpt lat="43.43206916624466" lon="10.430294092379022"><ele>306.0</ele><time>2026-04-04T09:55:21.999Z</time></trkpt><trkpt lat="43.43198746902685" lon="10.430233024836108"><ele>302.8</ele><time>2026-04-04T09:55:22.999Z</time></trkpt><trkpt lat="43.43190536213098" lon="10.430168982511658"><ele>299.6</ele><time>2026-04-04T09:55:23.999Z</time></trkpt><trkpt lat="43.431826045246716" lon="10.430092598213278"><ele>296.4</ele><time>2026-04-04T09:55:24.999Z</time></trkpt><trkpt lat="43.43174674925174" lon="10.429999371971475"><ele>293.2</ele><time>2026-04-04T09:55:25.999Z</time></trkpt><trkpt lat="43.43168528961484" lon="10.429906924927847"><ele>290.0</ele><time>2026-04-04T09:55:26.999Z</time></trkpt><trkpt lat="43.43163019745616" lon="10.429805382801916"><ele>290.0</ele><time>2026-04-04T09:55:27.999Z</time></trkpt><trkpt lat="43.43157900682972" lon="10.429671486593891"><ele>290.0</ele><time>2026-04-04T09:55:28.999Z</time></trkpt><trkpt lat="43.43156442570846" lon="10.429507146247438"><ele>290.0</ele><time>2026-04-04T09:55:29.999Z</time></trkpt><trkpt lat="43.43156349370086" lon="10.429351268103247"><ele>290.0</ele><time>2026-04-04T09:55:30.999Z</time></trkpt><trkpt lat="43.43156689603958" lon="10.429207190482705"><ele>290.0</ele><time>2026-04-04T09:55:31.999Z</time></trkpt><trkpt lat="43.43157608349748" lon="10.429072378168902"><ele>290.0</ele><time>2026-04-04T09:55:32.999Z</time></trkpt><trkpt lat="43.43159115056932" lon="10.428958955621386"><ele>290.0</ele><time>2026-04-04T09:55:33.999Z</time></trkpt><trkpt lat="43.43160895433833" lon="10.428853861901858"><ele>290.0</ele><time>2026-04-04T09:55:34.999Z</time></trkpt><trkpt lat="43.43164270236811" lon="10.42875291373399"><ele>290.0</ele><time>2026-04-04T09:55:35.999Z</time></trkpt><trkpt lat="43.43172007267793" lon="10.428648629936989"><ele>290.0</ele><time>2026-04-04T09:55:36.999Z</time></trkpt><trkpt lat="43.431811338741504" lon="10.428547629676432"><ele>291.0</ele><time>2026-04-04T09:55:37.999Z</time></trkpt><trkpt lat="43.431882447952944" lon="10.428452317192177"><ele>292.0</ele><time>2026-04-04T09:55:38.999Z</time></trkpt><trkpt lat="43.4319215774353" lon="10.428291341952256"><ele>293.0</ele><time>2026-04-04T09:55:39.999Z</time></trkpt><trkpt lat="43.43200107046743" lon="10.428184028727587"><ele>294.0</ele><time>2026-04-04T09:55:40.999Z</time></trkpt><trkpt lat="43.43207945246752" lon="10.428100368295711"><ele>295.0</ele><time>2026-04-04T09:55:41.999Z</time></trkpt><trkpt lat="43.432163274987616" lon="10.428044854246632"><ele>295.0</ele><time>2026-04-04T09:55:42.999Z</time></trkpt><trkpt lat="43.43225876696189" lon="10.427987529646249"><ele>295.0</ele><time>2026-04-04T09:55:44.999Z</time></trkpt><trkpt lat="43.432329177381554" lon="10.427944999555233"><ele>295.0</ele><time>2026-04-04T09:55:46.999Z</time></trkpt><trkpt lat="43.432413870928784" lon="10.42788981703625"><ele>295.0</ele><time>2026-04-04T09:55:48.999Z</time></trkpt><trkpt lat="43.43252405166235" lon="10.427816254189526"><ele>295.0</ele><time>2026-04-04T09:55:52.999Z</time></trkpt><trkpt lat="43.432595566876685" lon="10.427767587539622"><ele>291.6</ele><time>2026-04-04T09:55:54.999Z</time></trkpt><trkpt lat="43.43266496770239" lon="10.427718499321537"><ele>288.2</ele><time>2026-04-04T09:55:56.999Z</time></trkpt><trkpt lat="43.432724587618516" lon="10.427668943109763"><ele>284.8</ele><time>2026-04-04T09:55:59.999Z</time></trkpt><trkpt lat="43.43270984542035" lon="10.42737744548926"><ele>281.4</ele><time>2026-04-04T09:56:03.998Z</time></trkpt><trkpt lat="43.4327424632691" lon="10.427274616263675"><ele>278.0</ele><time>2026-04-04T09:56:05.998Z</time></trkpt><trkpt lat="43.432777012483996" lon="10.427190173997841"><ele>276.1666666666667</ele><time>2026-04-04T09:56:07.998Z</time></trkpt><trkpt lat="43.43283755479671" lon="10.427141288529134"><ele>274.33333333333337</ele><time>2026-04-04T09:56:09.999Z</time></trkpt><trkpt lat="43.43294699709104" lon="10.427081001747569"><ele>272.5</ele><time>2026-04-04T09:56:12.999Z</time></trkpt><trkpt lat="43.43304672184094" lon="10.42708061144089"><ele>270.6666666666667</ele><time>2026-04-04T09:56:13.999Z</time></trkpt><trkpt lat="43.433130780977265" lon="10.427067396540208"><ele>268.8333333333333</ele><time>2026-04-04T09:56:14.999Z</time></trkpt><trkpt lat="43.43320358682279" lon="10.427063036332717"><ele>267.0</ele><time>2026-04-04T09:56:15.999Z</time></trkpt><trkpt lat="43.43329154576397" lon="10.427049904929284"><ele>267.0</ele><time>2026-04-04T09:56:16.999Z</time></trkpt><trkpt lat="43.43337263252952" lon="10.42704882776342"><ele>267.0</ele><time>2026-04-04T09:56:17.999Z</time></trkpt><trkpt lat="43.43344736855919" lon="10.427024995550344"><ele>267.0</ele><time>2026-04-04T09:56:18.999Z</time></trkpt><trkpt lat="43.43350469821221" lon="10.426946115860831"><ele>267.0</ele><time>2026-04-04T09:56:19.999Z</time></trkpt><trkpt lat="43.43358045864953" lon="10.426880409566275"><ele>267.0</ele><time>2026-04-04T09:56:20.999Z</time></trkpt><trkpt lat="43.43364582271746" lon="10.426809721047885"><ele>267.0</ele><time>2026-04-04T09:56:21.999Z</time></trkpt><trkpt lat="43.43372595761342" lon="10.426754697296667"><ele>267.0</ele><time>2026-04-04T09:56:22.999Z</time></trkpt><trkpt lat="43.43378301011748" lon="10.426703444188295"><ele>267.0</ele><time>2026-04-04T09:56:23.999Z</time></trkpt><trkpt lat="43.433857413601075" lon="10.42663647752138"><ele>267.0</ele><time>2026-04-04T09:56:24.999Z</time></trkpt><trkpt lat="43.43391774296923" lon="10.4265441251833"><ele>267.0</ele><time>2026-04-04T09:56:25.999Z</time></trkpt><trkpt lat="43.43399928721742" lon="10.42647195203648"><ele>267.0</ele><time>2026-04-04T09:56:26.999Z</time></trkpt><trkpt lat="43.43405150903811" lon="10.426408475783077"><ele>267.0</ele><time>2026-04-04T09:56:27.999Z</time></trkpt><trkpt lat="43.434084252132074" lon="10.426330955245184"><ele>268.0</ele><time>2026-04-04T09:56:28.999Z</time></trkpt><trkpt lat="43.4340793028909" lon="10.426235159911732"><ele>269.0</ele><time>2026-04-04T09:56:29.999Z</time></trkpt><trkpt lat="43.43410689072908" lon="10.426124752706546"><ele>270.0</ele><time>2026-04-04T09:56:30.999Z</time></trkpt><trkpt lat="43.434053318640515" lon="10.426046579104645"><ele>271.0</ele><time>2026-04-04T09:56:31.999Z</time></trkpt><trkpt lat="43.43396519965893" lon="10.425931605074167"><ele>272.0</ele><time>2026-04-04T09:56:32.999Z</time></trkpt><trkpt lat="43.433921757878" lon="10.425799489980125"><ele>272.0</ele><time>2026-04-04T09:56:33.999Z</time></trkpt><trkpt lat="43.43387337203843" lon="10.425687363430054"><ele>272.0</ele><time>2026-04-04T09:56:34.999Z</time></trkpt><trkpt lat="43.43385045170974" lon="10.425563467319478"><ele>272.0</ele><time>2026-04-04T09:56:35.999Z</time></trkpt><trkpt lat="43.43384620485023" lon="10.425454878634968"><ele>272.0</ele><time>2026-04-04T09:56:36.999Z</time></trkpt><trkpt lat="43.4338301707769" lon="10.425340120428196"><ele>272.0</ele><time>2026-04-04T09:56:37.999Z</time></trkpt><trkpt lat="43.43386332932736" lon="10.425210545376014"><ele>270.5</ele><time>2026-04-04T09:56:38.999Z</time></trkpt><trkpt lat="43.43391707557294" lon="10.425045579874674"><ele>269.0</ele><time>2026-04-04T09:56:39.999Z</time></trkpt><trkpt lat="43.43398230546334" lon="10.424885084405759"><ele>267.5</ele><time>2026-04-04T09:56:40.999Z</time></trkpt><trkpt lat="43.43402879107114" lon="10.424720249250752"><ele>266.0</ele><time>2026-04-04T09:56:41.999Z</time></trkpt><trkpt lat="43.43406396992422" lon="10.424554889141"><ele>265.0</ele><time>2026-04-04T09:56:42.999Z</time></trkpt><trkpt lat="43.43408591295335" lon="10.424399229047271"><ele>264.0</ele><time>2026-04-04T09:56:43.999Z</time></trkpt><trkpt lat="43.43410087457502" lon="10.424284730746791"><ele>263.0</ele><time>2026-04-04T09:56:44.999Z</time></trkpt><trkpt lat="43.43412896270564" lon="10.424176987909464"><ele>262.0</ele><time>2026-04-04T09:56:45.999Z</time></trkpt><trkpt lat="43.434202397110354" lon="10.424059375037343"><ele>261.0</ele><time>2026-04-04T09:56:46.999Z</time></trkpt><trkpt lat="43.434287684892126" lon="10.4239394182995"><ele>261.0</ele><time>2026-04-04T09:56:47.999Z</time></trkpt><trkpt lat="43.43434831356145" lon="10.42383853386113"><ele>261.0</ele><time>2026-04-04T09:56:48.998Z</time></trkpt><trkpt lat="43.434405548013544" lon="10.423703574406302"><ele>261.0</ele><time>2026-04-04T09:56:49.998Z</time></trkpt><trkpt lat="43.4344394140129" lon="10.42350516992805"><ele>261.0</ele><time>2026-04-04T09:56:50.998Z</time></trkpt><trkpt lat="43.43448395093888" lon="10.423326971177667"><ele>261.8</ele><time>2026-04-04T09:56:51.998Z</time></trkpt><trkpt lat="43.434525672529894" lon="10.42317784050138"><ele>262.6</ele><time>2026-04-04T09:56:52.998Z</time></trkpt><trkpt lat="43.43457705056259" lon="10.423054016706221"><ele>263.4</ele><time>2026-04-04T09:56:53.998Z</time></trkpt><trkpt lat="43.43463174286794" lon="10.422945374247607"><ele>264.2</ele><time>2026-04-04T09:56:54.998Z</time></trkpt><trkpt lat="43.43467533952475" lon="10.422848656417695"><ele>265.0</ele><time>2026-04-04T09:56:55.998Z</time></trkpt><trkpt lat="43.43468438888341" lon="10.422759283529432"><ele>262.8</ele><time>2026-04-04T09:56:56.998Z</time></trkpt><trkpt lat="43.43465651520033" lon="10.422649517042034"><ele>260.6</ele><time>2026-04-04T09:56:57.998Z</time></trkpt><trkpt lat="43.43459383999256" lon="10.42252946576265"><ele>258.4</ele><time>2026-04-04T09:56:58.998Z</time></trkpt><trkpt lat="43.43450145787551" lon="10.422428258622022"><ele>256.2</ele><time>2026-04-04T09:56:59.998Z</time></trkpt><trkpt lat="43.43440054078522" lon="10.422348790413483"><ele>254.0</ele><time>2026-04-04T09:57:00.998Z</time></trkpt><trkpt lat="43.43429411892719" lon="10.42228816716089"><ele>254.0</ele><time>2026-04-04T09:57:01.998Z</time></trkpt><trkpt lat="43.4341710570871" lon="10.422275887727341"><ele>254.0</ele><time>2026-04-04T09:57:02.998Z</time></trkpt><trkpt lat="43.43408036622894" lon="10.42226884459414"><ele>254.0</ele><time>2026-04-04T09:57:03.998Z</time></trkpt><trkpt lat="43.433962584388645" lon="10.422260378027088"><ele>254.0</ele><time>2026-04-04T09:57:04.998Z</time></trkpt><trkpt lat="43.433845398550254" lon="10.422239311991996"><ele>253.6</ele><time>2026-04-04T09:57:05.998Z</time></trkpt><trkpt lat="43.43373451940936" lon="10.42220210304558"><ele>253.2</ele><time>2026-04-04T09:57:06.998Z</time></trkpt><trkpt lat="43.43363067555094" lon="10.422164454971528"><ele>252.79999999999998</ele><time>2026-04-04T09:57:08Z</time></trkpt><trkpt lat="43.433556718302874" lon="10.42213272127014"><ele>252.39999999999998</ele><time>2026-04-04T09:57:09Z</time></trkpt><trkpt lat="43.43344400882779" lon="10.422061802169106"><ele>252.0</ele><time>2026-04-04T09:57:11Z</time></trkpt><trkpt lat="43.4333625482864" lon="10.422013763526746"><ele>252.0</ele><time>2026-04-04T09:57:12Z</time></trkpt><trkpt lat="43.43328618863266" lon="10.42198307123513"><ele>252.0</ele><time>2026-04-04T09:57:13Z</time></trkpt><trkpt lat="43.43318514011879" lon="10.422019310595777"><ele>252.0</ele><time>2026-04-04T09:57:14Z</time></trkpt><trkpt lat="43.43308734501938" lon="10.42207844988253"><ele>252.0</ele><time>2026-04-04T09:57:15Z</time></trkpt><trkpt lat="43.43299057419913" lon="10.422155400147176"><ele>252.0</ele><time>2026-04-04T09:57:16Z</time></trkpt><trkpt lat="43.43293087664576" lon="10.422211435724892"><ele>251.0</ele><time>2026-04-04T09:57:17Z</time></trkpt><trkpt lat="43.432848446771175" lon="10.42229378016905"><ele>250.0</ele><time>2026-04-04T09:57:19Z</time></trkpt><trkpt lat="43.43277866853564" lon="10.422355044539819"><ele>249.0</ele><time>2026-04-04T09:57:21Z</time></trkpt><trkpt lat="43.43269825594502" lon="10.422325388999262"><ele>248.0</ele><time>2026-04-04T09:57:23Z</time></trkpt><trkpt lat="43.43266110477031" lon="10.422249927938608"><ele>247.0</ele><time>2026-04-04T09:57:24Z</time></trkpt><trkpt lat="43.43261859276482" lon="10.422142562257704"><ele>246.0</ele><time>2026-04-04T09:57:25Z</time></trkpt><trkpt lat="43.43257068390088" lon="10.422040901663838"><ele>244.0</ele><time>2026-04-04T09:57:26Z</time></trkpt><trkpt lat="43.43249705903091" lon="10.421941593305467"><ele>242.00000000000003</ele><time>2026-04-04T09:57:27Z</time></trkpt><trkpt lat="43.4324114130376" lon="10.421839429249102"><ele>240.00000000000003</ele><time>2026-04-04T09:57:28Z</time></trkpt><trkpt lat="43.43233997772905" lon="10.421756213408745"><ele>238.0</ele><time>2026-04-04T09:57:29Z</time></trkpt><trkpt lat="43.43225226614324" lon="10.421657468079681"><ele>236.0</ele><time>2026-04-04T09:57:30Z</time></trkpt><trkpt lat="43.43217599975055" lon="10.421571408911968"><ele>234.8</ele><time>2026-04-04T09:57:31Z</time></trkpt><trkpt lat="43.43211201782829" lon="10.421518624829673"><ele>233.60000000000002</ele><time>2026-04-04T09:57:32Z</time></trkpt><trkpt lat="43.432017064424514" lon="10.421511793276313"><ele>232.4</ele><time>2026-04-04T09:57:33Z</time></trkpt><trkpt lat="43.431929066513376" lon="10.421548776214706"><ele>231.2</ele><time>2026-04-04T09:57:34Z</time></trkpt><trkpt lat="43.43183100442172" lon="10.421630648601948"><ele>230.0</ele><time>2026-04-04T09:57:35Z</time></trkpt><trkpt lat="43.43175123516102" lon="10.421760675594921"><ele>230.0</ele><time>2026-04-04T09:57:36Z</time></trkpt><trkpt lat="43.43167059468495" lon="10.421926480912019"><ele>230.0</ele><time>2026-04-04T09:57:37Z</time></trkpt><trkpt lat="43.43159814438838" lon="10.422080100355757"><ele>230.0</ele><time>2026-04-04T09:57:38Z</time></trkpt><trkpt lat="43.43153779209144" lon="10.422195656842385"><ele>230.0</ele><time>2026-04-04T09:57:39Z</time></trkpt><trkpt lat="43.431487559134524" lon="10.422304417691155"><ele>229.50000000000003</ele><time>2026-04-04T09:57:40Z</time></trkpt><trkpt lat="43.431451828491554" lon="10.422396925980946"><ele>229.0</ele><time>2026-04-04T09:57:41Z</time></trkpt><trkpt lat="43.431426390547195" lon="10.422503962287948"><ele>228.5</ele><time>2026-04-04T09:57:42Z</time></trkpt><trkpt lat="43.431465076448255" lon="10.422607676016316"><ele>228.0</ele><time>2026-04-04T09:57:43Z</time></trkpt><trkpt lat="43.431502118171565" lon="10.422718714564027"><ele>227.50000000000003</ele><time>2026-04-04T09:57:44Z</time></trkpt><trkpt lat="43.43152948229034" lon="10.422867885377544"><ele>227.0</ele><time>2026-04-04T09:57:45Z</time></trkpt><trkpt lat="43.43154462981167" lon="10.423041072372044"><ele>227.00000000000003</ele><time>2026-04-04T09:57:46Z</time></trkpt><trkpt lat="43.431528315124346" lon="10.423171178555672"><ele>227.0</ele><time>2026-04-04T09:57:47Z</time></trkpt><trkpt lat="43.431528511598906" lon="10.423279196397251"><ele>227.0</ele><time>2026-04-04T09:57:48Z</time></trkpt><trkpt lat="43.431552587240226" lon="10.423389479354462"><ele>227.0</ele><time>2026-04-04T09:57:49Z</time></trkpt><trkpt lat="43.43160135647357" lon="10.423488813429493"><ele>227.00000000000003</ele><time>2026-04-04T09:57:50Z</time></trkpt><trkpt lat="43.43169850116212" lon="10.423537968191209"><ele>227.0</ele><time>2026-04-04T09:57:51Z</time></trkpt><trkpt lat="43.43178793911959" lon="10.423589918667226"><ele>227.00000000000003</ele><time>2026-04-04T09:57:52Z</time></trkpt><trkpt lat="43.4318713978212" lon="10.423649191349526"><ele>227.0</ele><time>2026-04-04T09:57:53Z</time></trkpt><trkpt lat="43.43193214089863" lon="10.423727322354106"><ele>227.0</ele><time>2026-04-04T09:57:54Z</time></trkpt><trkpt lat="43.43198535395063" lon="10.423833700411912"><ele>227.0</ele><time>2026-04-04T09:57:55Z</time></trkpt><trkpt lat="43.43203215543166" lon="10.423922632181826"><ele>227.00000000000003</ele><time>2026-04-04T09:57:56Z</time></trkpt><trkpt lat="43.43205732502887" lon="10.424037807809713"><ele>227.0</ele><time>2026-04-04T09:57:57Z</time></trkpt><trkpt lat="43.43206278857836" lon="10.424126222969532"><ele>226.39999999999998</ele><time>2026-04-04T09:57:58Z</time></trkpt><trkpt lat="43.43201817112192" lon="10.424196355555603"><ele>225.79999999999998</ele><time>2026-04-04T09:57:59Z</time></trkpt><trkpt lat="43.43194770306876" lon="10.42417876345544"><ele>225.2</ele><time>2026-04-04T09:58:00Z</time></trkpt><trkpt lat="43.43178125178302" lon="10.424172801378306"><ele>224.6</ele><time>2026-04-04T09:58:02Z</time></trkpt><trkpt lat="43.431643113214044" lon="10.424170164009064"><ele>224.0</ele><time>2026-04-04T09:58:03Z</time></trkpt><trkpt lat="43.431522442216576" lon="10.424169915426488"><ele>224.0</ele><time>2026-04-04T09:58:04Z</time></trkpt><trkpt lat="43.43142417576106" lon="10.42417483691525"><ele>223.99999999999997</ele><time>2026-04-04T09:58:05Z</time></trkpt><trkpt lat="43.43133163763825" lon="10.424186652324458"><ele>223.99999999999997</ele><time>2026-04-04T09:58:06Z</time></trkpt><trkpt lat="43.431237821013" lon="10.424190450970878"><ele>224.0</ele><time>2026-04-04T09:58:06.999Z</time></trkpt><trkpt lat="43.431133788233396" lon="10.424173486422264"><ele>224.0</ele><time>2026-04-04T09:58:07.999Z</time></trkpt><trkpt lat="43.4310296074765" lon="10.424153490157293"><ele>221.79999999999998</ele><time>2026-04-04T09:58:08.999Z</time></trkpt><trkpt lat="43.43094300375343" lon="10.424135528917137"><ele>219.59999999999997</ele><time>2026-04-04T09:58:09.999Z</time></trkpt><trkpt lat="43.43087988054728" lon="10.42413975045312"><ele>217.4</ele><time>2026-04-04T09:58:10.999Z</time></trkpt><trkpt lat="43.430817621693045" lon="10.424236097144682"><ele>215.2</ele><time>2026-04-04T09:58:11.999Z</time></trkpt><trkpt lat="43.43080943975193" lon="10.424390661367335"><ele>213.0</ele><time>2026-04-04T09:58:12.999Z</time></trkpt><trkpt lat="43.43079738951045" lon="10.424523525598959"><ele>213.0</ele><time>2026-04-04T09:58:13.999Z</time></trkpt><trkpt lat="43.430744134598854" lon="10.424607939092057"><ele>213.0</ele><time>2026-04-04T09:58:14.999Z</time></trkpt><trkpt lat="43.43066068239596" lon="10.424527586098554"><ele>213.0</ele><time>2026-04-04T09:58:16.999Z</time></trkpt><trkpt lat="43.43059395368597" lon="10.424363896595954"><ele>213.0</ele><time>2026-04-04T09:58:18.999Z</time></trkpt><trkpt lat="43.430487022812486" lon="10.424203273294195"><ele>213.60000000000002</ele><time>2026-04-04T09:58:19.999Z</time></trkpt><trkpt lat="43.43039786706526" lon="10.424073256380863"><ele>214.20000000000002</ele><time>2026-04-04T09:58:20.999Z</time></trkpt><trkpt lat="43.43033037614562" lon="10.423975149075545"><ele>214.8</ele><time>2026-04-04T09:58:21.999Z</time></trkpt><trkpt lat="43.43025885644939" lon="10.423872754857252"><ele>215.4</ele><time>2026-04-04T09:58:22.999Z</time></trkpt><trkpt lat="43.43020492048781" lon="10.423813437842936"><ele>216.0</ele><time>2026-04-04T09:58:23.999Z</time></trkpt><trkpt lat="43.43014065243117" lon="10.423758916097492"><ele>216.0</ele><time>2026-04-04T09:58:24.999Z</time></trkpt><trkpt lat="43.43003234342899" lon="10.423762844232636"><ele>216.00000000000003</ele><time>2026-04-04T09:58:25.999Z</time></trkpt><trkpt lat="43.42991960044581" lon="10.423813293395877"><ele>216.00000000000003</ele><time>2026-04-04T09:58:26.999Z</time></trkpt><trkpt lat="43.42982389109981" lon="10.423835937942236"><ele>216.0</ele><time>2026-04-04T09:58:27.999Z</time></trkpt><trkpt lat="43.429759235679875" lon="10.423793229351563"><ele>216.0</ele><time>2026-04-04T09:58:29.999Z</time></trkpt><trkpt lat="43.4297517602456" lon="10.423636735734787"><ele>213.20000000000002</ele><time>2026-04-04T09:58:31.999Z</time></trkpt><trkpt lat="43.42977061402898" lon="10.423468625263492"><ele>210.40000000000003</ele><time>2026-04-04T09:58:32.999Z</time></trkpt><trkpt lat="43.42979166621488" lon="10.423302706225023"><ele>207.6</ele><time>2026-04-04T09:58:33.999Z</time></trkpt><trkpt lat="43.42978385783519" lon="10.42318084432309"><ele>204.8</ele><time>2026-04-04T09:58:34.999Z</time></trkpt><trkpt lat="43.42973061216278" lon="10.42308443884889"><ele>202.0</ele><time>2026-04-04T09:58:35.999Z</time></trkpt><trkpt lat="43.42964611157536" lon="10.423031731000663"><ele>200.6</ele><time>2026-04-04T09:58:36.999Z</time></trkpt><trkpt lat="43.42953014022926" lon="10.422947875087502"><ele>199.2</ele><time>2026-04-04T09:58:37.999Z</time></trkpt><trkpt lat="43.429416172095266" lon="10.422921311390423"><ele>197.8</ele><time>2026-04-04T09:58:38.999Z</time></trkpt><trkpt lat="43.42933618550168" lon="10.422877606954195"><ele>196.4</ele><time>2026-04-04T09:58:39.999Z</time></trkpt><trkpt lat="43.4292769710643" lon="10.422813082216734"><ele>195.0</ele><time>2026-04-04T09:58:40.999Z</time></trkpt><trkpt lat="43.429197008742534" lon="10.422687240415925"><ele>195.0</ele><time>2026-04-04T09:58:41.999Z</time></trkpt><trkpt lat="43.42911012048501" lon="10.422564366867215"><ele>195.0</ele><time>2026-04-04T09:58:42.999Z</time></trkpt><trkpt lat="43.429028396358355" lon="10.422438811333627"><ele>195.0</ele><time>2026-04-04T09:58:43.999Z</time></trkpt><trkpt lat="43.42896139640954" lon="10.422303979286388"><ele>195.0</ele><time>2026-04-04T09:58:44.999Z</time></trkpt><trkpt lat="43.42889006122244" lon="10.422158655572588"><ele>194.4</ele><time>2026-04-04T09:58:45.999Z</time></trkpt><trkpt lat="43.42882875942064" lon="10.422030832557187"><ele>193.8</ele><time>2026-04-04T09:58:46.999Z</time></trkpt><trkpt lat="43.42877138443004" lon="10.42190929946741"><ele>193.2</ele><time>2026-04-04T09:58:47.999Z</time></trkpt><trkpt lat="43.42870751407154" lon="10.42177938794452"><ele>192.6</ele><time>2026-04-04T09:58:48.999Z</time></trkpt><trkpt lat="43.428649370741155" lon="10.421680319640972"><ele>192.0</ele><time>2026-04-04T09:58:49.999Z</time></trkpt><trkpt lat="43.42858173862957" lon="10.421583853851109"><ele>192.0</ele><time>2026-04-04T09:58:50.999Z</time></trkpt><trkpt lat="43.42846914843601" lon="10.421465694867841"><ele>192.0</ele><time>2026-04-04T09:58:51.999Z</time></trkpt><trkpt lat="43.42833300955551" lon="10.421347770925237"><ele>192.0</ele><time>2026-04-04T09:58:52.999Z</time></trkpt><trkpt lat="43.428204343769025" lon="10.42124131040456"><ele>189.75</ele><time>2026-04-04T09:58:53.998Z</time></trkpt><trkpt lat="43.428084320715435" lon="10.421151753322649"><ele>187.5</ele><time>2026-04-04T09:58:54.998Z</time></trkpt><trkpt lat="43.427966424638385" lon="10.421074542160728"><ele>185.25</ele><time>2026-04-04T09:58:55.998Z</time></trkpt><trkpt lat="43.42784503628702" lon="10.42100456974222"><ele>183.0</ele><time>2026-04-04T09:58:56.998Z</time></trkpt><trkpt lat="43.427714767449615" lon="10.42097067181765"><ele>183.0</ele><time>2026-04-04T09:58:57.998Z</time></trkpt><trkpt lat="43.42761482443285" lon="10.420965465149603"><ele>183.0</ele><time>2026-04-04T09:58:58.998Z</time></trkpt><trkpt lat="43.42751962832715" lon="10.420940639327304"><ele>183.0</ele><time>2026-04-04T09:58:59.998Z</time></trkpt><trkpt lat="43.427446332799455" lon="10.420896288596206"><ele>183.0</ele><time>2026-04-04T09:59:00.998Z</time></trkpt><trkpt lat="43.42736071692219" lon="10.4208069229571"><ele>183.0</ele><time>2026-04-04T09:59:01.998Z</time></trkpt><trkpt lat="43.42729121645034" lon="10.420679652012076"><ele>183.0</ele><time>2026-04-04T09:59:02.998Z</time></trkpt><trkpt lat="43.42724577275479" lon="10.420528101194185"><ele>183.0</ele><time>2026-04-04T09:59:03.998Z</time></trkpt><trkpt lat="43.42720395224759" lon="10.420360371428727"><ele>183.0</ele><time>2026-04-04T09:59:04.998Z</time></trkpt><trkpt lat="43.427159916939424" lon="10.42017961932403"><ele>183.0</ele><time>2026-04-04T09:59:05.998Z</time></trkpt><trkpt lat="43.42710410921942" lon="10.419993517632449"><ele>182.25</ele><time>2026-04-04T09:59:06.998Z</time></trkpt><trkpt lat="43.42703651443065" lon="10.419839087459847"><ele>181.5</ele><time>2026-04-04T09:59:07.998Z</time></trkpt><trkpt lat="43.4269677814718" lon="10.419689118545643"><ele>180.75</ele><time>2026-04-04T09:59:08.998Z</time></trkpt><trkpt lat="43.42691430500808" lon="10.41953881067534"><ele>180.0</ele><time>2026-04-04T09:59:09.998Z</time></trkpt><trkpt lat="43.426873145634275" lon="10.419414665887434"><ele>177.25</ele><time>2026-04-04T09:59:10.998Z</time></trkpt><trkpt lat="43.42682530935156" lon="10.419288372758013"><ele>174.5</ele><time>2026-04-04T09:59:11.998Z</time></trkpt><trkpt lat="43.42675701618286" lon="10.419161533155913"><ele>171.75</ele><time>2026-04-04T09:59:12.998Z</time></trkpt><trkpt lat="43.426659177571686" lon="10.419054190587945"><ele>169.0</ele><time>2026-04-04T09:59:14Z</time></trkpt><trkpt lat="43.42654527138121" lon="10.418972474375957"><ele>169.0</ele><time>2026-04-04T09:59:15Z</time></trkpt><trkpt lat="43.42644703796001" lon="10.418954512018752"><ele>169.0</ele><time>2026-04-04T09:59:16Z</time></trkpt><trkpt lat="43.42636911180689" lon="10.41895661183872"><ele>169.0</ele><time>2026-04-04T09:59:17Z</time></trkpt><trkpt lat="43.42627338904022" lon="10.418978626486867"><ele>169.0</ele><time>2026-04-04T09:59:18Z</time></trkpt><trkpt lat="43.42617767478757" lon="10.419088740078061"><ele>169.0</ele><time>2026-04-04T09:59:19Z</time></trkpt><trkpt lat="43.4260401097049" lon="10.419176547210627"><ele>168.6</ele><time>2026-04-04T09:59:20Z</time></trkpt><trkpt lat="43.42594535116432" lon="10.419274301679843"><ele>168.2</ele><time>2026-04-04T09:59:21Z</time></trkpt><trkpt lat="43.42587848090404" lon="10.41934942109777"><ele>167.79999999999998</ele><time>2026-04-04T09:59:22Z</time></trkpt><trkpt lat="43.42582906615808" lon="10.419462353171026"><ele>167.39999999999998</ele><time>2026-04-04T09:59:23Z</time></trkpt><trkpt lat="43.42578244004789" lon="10.419633280734027"><ele>167.0</ele><time>2026-04-04T09:59:24Z</time></trkpt><trkpt lat="43.42573866833234" lon="10.419812275669969"><ele>167.0</ele><time>2026-04-04T09:59:25Z</time></trkpt><trkpt lat="43.4257244911565" lon="10.419964730151216"><ele>167.0</ele><time>2026-04-04T09:59:26Z</time></trkpt><trkpt lat="43.425702958898746" lon="10.420097970796082"><ele>167.0</ele><time>2026-04-04T09:59:27Z</time></trkpt><trkpt lat="43.42570294454935" lon="10.420238921729512"><ele>167.0</ele><time>2026-04-04T09:59:28Z</time></trkpt><trkpt lat="43.42571594549853" lon="10.420331684447135"><ele>167.0</ele><time>2026-04-04T09:59:29Z</time></trkpt><trkpt lat="43.42570458346285" lon="10.420443493651721"><ele>167.33333333333331</ele><time>2026-04-04T09:59:30Z</time></trkpt><trkpt lat="43.42567243120475" lon="10.420542000603001"><ele>167.66666666666666</ele><time>2026-04-04T09:59:31Z</time></trkpt><trkpt lat="43.4255841570589" lon="10.420565232769851"><ele>168.0</ele><time>2026-04-04T09:59:32Z</time></trkpt><trkpt lat="43.425500105246535" lon="10.420515359399307"><ele>168.33333333333334</ele><time>2026-04-04T09:59:33Z</time></trkpt><trkpt lat="43.4254294956437" lon="10.42049117616835"><ele>168.66666666666669</ele><time>2026-04-04T09:59:34Z</time></trkpt><trkpt lat="43.425348915491064" lon="10.420456272317058"><ele>169.0</ele><time>2026-04-04T09:59:35Z</time></trkpt><trkpt lat="43.425248692801915" lon="10.42041732024073"><ele>165.75</ele><time>2026-04-04T09:59:36Z</time></trkpt><trkpt lat="43.42515291821678" lon="10.420320265932926"><ele>162.5</ele><time>2026-04-04T09:59:37Z</time></trkpt><trkpt lat="43.42506657792109" lon="10.420235516238723"><ele>159.25</ele><time>2026-04-04T09:59:38Z</time></trkpt><trkpt lat="43.42498510179613" lon="10.420112630113568"><ele>156.0</ele><time>2026-04-04T09:59:39Z</time></trkpt><trkpt lat="43.424885385463725" lon="10.41999048388197"><ele>156.0</ele><time>2026-04-04T09:59:40Z</time></trkpt><trkpt lat="43.42477500510267" lon="10.419880006500502"><ele>156.0</ele><time>2026-04-04T09:59:41Z</time></trkpt><trkpt lat="43.4246563805318" lon="10.419810011061227"><ele>156.0</ele><time>2026-04-04T09:59:42Z</time></trkpt><trkpt lat="43.42456227005267" lon="10.41971456725134"><ele>156.0</ele><time>2026-04-04T09:59:43Z</time></trkpt><trkpt lat="43.42448366769817" lon="10.41960368922038"><ele>153.75</ele><time>2026-04-04T09:59:44Z</time></trkpt><trkpt lat="43.424405124318255" lon="10.419476086294829"><ele>151.5</ele><time>2026-04-04T09:59:45Z</time></trkpt><trkpt lat="43.42430049911135" lon="10.419317426774276"><ele>149.25</ele><time>2026-04-04T09:59:46Z</time></trkpt><trkpt lat="43.42420660319425" lon="10.419207972875249"><ele>147.0</ele><time>2026-04-04T09:59:47Z</time></trkpt><trkpt lat="43.4241173884728" lon="10.419121492040835"><ele>147.0</ele><time>2026-04-04T09:59:48Z</time></trkpt><trkpt lat="43.42403100441056" lon="10.4190402125696"><ele>147.0</ele><time>2026-04-04T09:59:49Z</time></trkpt><trkpt lat="43.42394159711303" lon="10.4189715847363"><ele>147.0</ele><time>2026-04-04T09:59:50Z</time></trkpt><trkpt lat="43.42385503504722" lon="10.418938280713602"><ele>147.0</ele><time>2026-04-04T09:59:51Z</time></trkpt><trkpt lat="43.423773305735416" lon="10.418934082779154"><ele>147.0</ele><time>2026-04-04T09:59:52Z</time></trkpt><trkpt lat="43.423678598626005" lon="10.419013929917922"><ele>146.4</ele><time>2026-04-04T09:59:53Z</time></trkpt><trkpt lat="43.42360308784024" lon="10.419143077141737"><ele>145.79999999999998</ele><time>2026-04-04T09:59:54Z</time></trkpt><trkpt lat="43.42352768297585" lon="10.419212103919882"><ele>145.2</ele><time>2026-04-04T09:59:55Z</time></trkpt><trkpt lat="43.42347382681646" lon="10.419274641504028"><ele>144.6</ele><time>2026-04-04T09:59:56Z</time></trkpt><trkpt lat="43.42345320695053" lon="10.419160248694341"><ele>144.0</ele><time>2026-04-04T10:00:00Z</time></trkpt><trkpt lat="43.423427776739985" lon="10.419027202860159"><ele>144.0</ele><time>2026-04-04T10:00:01Z</time></trkpt><trkpt lat="43.42337529241316" lon="10.418860672831423"><ele>144.0</ele><time>2026-04-04T10:00:02Z</time></trkpt><trkpt lat="43.423290673680555" lon="10.418690181477114"><ele>144.0</ele><time>2026-04-04T10:00:03Z</time></trkpt><trkpt lat="43.42315927332864" lon="10.41856010569803"><ele>144.0</ele><time>2026-04-04T10:00:04Z</time></trkpt><trkpt lat="43.42305340157129" lon="10.418430227249713"><ele>142.0</ele><time>2026-04-04T10:00:05Z</time></trkpt><trkpt lat="43.422970709500696" lon="10.41830968992357"><ele>140.0</ele><time>2026-04-04T10:00:06Z</time></trkpt><trkpt lat="43.42289379273722" lon="10.418171471817736"><ele>138.0</ele><time>2026-04-04T10:00:07Z</time></trkpt><trkpt lat="43.42282225081965" lon="10.418023287830362"><ele>136.0</ele><time>2026-04-04T10:00:08Z</time></trkpt><trkpt lat="43.42266347627384" lon="10.417917496208261"><ele>135.75</ele><time>2026-04-04T10:00:09Z</time></trkpt><trkpt lat="43.42252522974816" lon="10.41783156384691"><ele>135.5</ele><time>2026-04-04T10:00:10Z</time></trkpt><trkpt lat="43.422403686792464" lon="10.417733544217223"><ele>135.25</ele><time>2026-04-04T10:00:11Z</time></trkpt><trkpt lat="43.42228182966563" lon="10.417615901880325"><ele>135.0</ele><time>2026-04-04T10:00:11.999Z</time></trkpt><trkpt lat="43.42214939376088" lon="10.417482284278181"><ele>133.33333333333334</ele><time>2026-04-04T10:00:12.999Z</time></trkpt><trkpt lat="43.4220113587406" lon="10.417337741553393"><ele>131.66666666666669</ele><time>2026-04-04T10:00:13.999Z</time></trkpt><trkpt lat="43.42186976302908" lon="10.41719447204841"><ele>130.0</ele><time>2026-04-04T10:00:14.999Z</time></trkpt><trkpt lat="43.42172701563869" lon="10.417062290865168"><ele>130.0</ele><time>2026-04-04T10:00:15.999Z</time></trkpt><trkpt lat="43.421606704000915" lon="10.416936979372641"><ele>130.0</ele><time>2026-04-04T10:00:16.999Z</time></trkpt><trkpt lat="43.421496033556814" lon="10.416814276669237"><ele>130.0</ele><time>2026-04-04T10:00:17.999Z</time></trkpt><trkpt lat="43.42139615023103" lon="10.416705613906183"><ele>130.0</ele><time>2026-04-04T10:00:18.999Z</time></trkpt><trkpt lat="43.421298976987615" lon="10.4166010962394"><ele>129.4</ele><time>2026-04-04T10:00:19.999Z</time></trkpt><trkpt lat="43.42120898045859" lon="10.41650979500489"><ele>128.8</ele><time>2026-04-04T10:00:20.999Z</time></trkpt><trkpt lat="43.421132006186355" lon="10.416431548036627"><ele>128.2</ele><time>2026-04-04T10:00:21.999Z</time></trkpt><trkpt lat="43.421074618471415" lon="10.416366056370528"><ele>127.6</ele><time>2026-04-04T10:00:22.999Z</time></trkpt><trkpt lat="43.42104556782123" lon="10.416284831056942"><ele>127.0</ele><time>2026-04-04T10:00:23.999Z</time></trkpt><trkpt lat="43.42098309656801" lon="10.416156709746435"><ele>127.0</ele><time>2026-04-04T10:00:24.999Z</time></trkpt><trkpt lat="43.421006070866525" lon="10.415929368008133"><ele>127.0</ele><time>2026-04-04T10:00:25.999Z</time></trkpt><trkpt lat="43.42092393510338" lon="10.415753432245397"><ele>127.0</ele><time>2026-04-04T10:00:26.999Z</time></trkpt><trkpt lat="43.42087064960822" lon="10.415618633249785"><ele>127.0</ele><time>2026-04-04T10:00:27.999Z</time></trkpt><trkpt lat="43.42082201619664" lon="10.415521587639061"><ele>126.39999999999999</ele><time>2026-04-04T10:00:28.999Z</time></trkpt><trkpt lat="43.420789875238604" lon="10.415428311202305"><ele>125.79999999999998</ele><time>2026-04-04T10:00:29.999Z</time></trkpt><trkpt lat="43.42082775117805" lon="10.415326389641159"><ele>125.2</ele><time>2026-04-04T10:00:30.999Z</time></trkpt><trkpt lat="43.42088540610939" lon="10.415229721653086"><ele>124.6</ele><time>2026-04-04T10:00:31.999Z</time></trkpt><trkpt lat="43.420975045237896" lon="10.415081592847123"><ele>124.0</ele><time>2026-04-04T10:00:32.999Z</time></trkpt><trkpt lat="43.42106840387672" lon="10.414904268378072"><ele>124.0</ele><time>2026-04-04T10:00:33.999Z</time></trkpt><trkpt lat="43.421153445157294" lon="10.414761895592452"><ele>124.0</ele><time>2026-04-04T10:00:34.999Z</time></trkpt><trkpt lat="43.42124380989636" lon="10.414627892343281"><ele>124.0</ele><time>2026-04-04T10:00:35.999Z</time></trkpt><trkpt lat="43.421341483459486" lon="10.414476693297143"><ele>124.0</ele><time>2026-04-04T10:00:36.999Z</time></trkpt><trkpt lat="43.42142934130734" lon="10.414332170059184"><ele>122.50000000000001</ele><time>2026-04-04T10:00:37.999Z</time></trkpt><trkpt lat="43.421503792547625" lon="10.41420336894305"><ele>121.0</ele><time>2026-04-04T10:00:38.999Z</time></trkpt><trkpt lat="43.42157580400212" lon="10.414102988327718"><ele>119.5</ele><time>2026-04-04T10:00:39.999Z</time></trkpt><trkpt lat="43.42164324995684" lon="10.414037259620024"><ele>118.0</ele><time>2026-04-04T10:00:40.999Z</time></trkpt><trkpt lat="43.4217006332139" lon="10.413972745580866"><ele>116.50000000000001</ele><time>2026-04-04T10:00:41.999Z</time></trkpt><trkpt lat="43.42173565852123" lon="10.413899056998982"><ele>115.0</ele><time>2026-04-04T10:00:42.999Z</time></trkpt><trkpt lat="43.42177485663922" lon="10.413815640385298"><ele>113.25</ele><time>2026-04-04T10:00:43.999Z</time></trkpt><trkpt lat="43.421764277991564" lon="10.413666273029117"><ele>111.5</ele><time>2026-04-04T10:00:44.999Z</time></trkpt><trkpt lat="43.421721584749086" lon="10.41349771555842"><ele>109.75</ele><time>2026-04-04T10:00:45.999Z</time></trkpt><trkpt lat="43.42167095775453" lon="10.413336273590343"><ele>108.0</ele><time>2026-04-04T10:00:46.999Z</time></trkpt><trkpt lat="43.421628573268684" lon="10.413226955800127"><ele>108.0</ele><time>2026-04-04T10:00:47.999Z</time></trkpt><trkpt lat="43.421573431724035" lon="10.41313596881659"><ele>108.00000000000001</ele><time>2026-04-04T10:00:48.999Z</time></trkpt><trkpt lat="43.42148639968828" lon="10.413051981843758"><ele>108.00000000000001</ele><time>2026-04-04T10:00:49.999Z</time></trkpt><trkpt lat="43.42137655294751" lon="10.412963233595502"><ele>108.0</ele><time>2026-04-04T10:00:50.999Z</time></trkpt><trkpt lat="43.42131319807541" lon="10.412861580875969"><ele>108.0</ele><time>2026-04-04T10:00:51.999Z</time></trkpt><trkpt lat="43.421277087021515" lon="10.412718287137203"><ele>107.25</ele><time>2026-04-04T10:00:52.999Z</time></trkpt><trkpt lat="43.421229776159244" lon="10.41255209397633"><ele>106.5</ele><time>2026-04-04T10:00:53.999Z</time></trkpt><trkpt lat="43.421177167290345" lon="10.412412576613972"><ele>105.75</ele><time>2026-04-04T10:00:54.999Z</time></trkpt><trkpt lat="43.42107988852002" lon="10.412253283002032"><ele>105.0</ele><time>2026-04-04T10:00:55.999Z</time></trkpt><trkpt lat="43.42094714898687" lon="10.4120824354246"><ele>102.66666666666666</ele><time>2026-04-04T10:00:56.999Z</time></trkpt><trkpt lat="43.42083958033683" lon="10.411857443183271"><ele>100.33333333333333</ele><time>2026-04-04T10:00:57.999Z</time></trkpt><trkpt lat="43.42073313421901" lon="10.411663377024029"><ele>98.0</ele><time>2026-04-04T10:00:58.999Z</time></trkpt><trkpt lat="43.420630334750456" lon="10.411505454127003"><ele>98.0</ele><time>2026-04-04T10:00:59.998Z</time></trkpt><trkpt lat="43.42053321800516" lon="10.411390489827042"><ele>98.0</ele><time>2026-04-04T10:01:00.998Z</time></trkpt><trkpt lat="43.42044630508838" lon="10.41131008348893"><ele>98.0</ele><time>2026-04-04T10:01:01.998Z</time></trkpt><trkpt lat="43.42034928091482" lon="10.411271613870031"><ele>98.0</ele><time>2026-04-04T10:01:02.998Z</time></trkpt><trkpt lat="43.4202724313208" lon="10.411166603387601"><ele>98.0</ele><time>2026-04-04T10:01:03.998Z</time></trkpt><trkpt lat="43.42021975572359" lon="10.411041879279948"><ele>98.0</ele><time>2026-04-04T10:01:04.998Z</time></trkpt><trkpt lat="43.420152085291726" lon="10.410879659800615"><ele>98.0</ele><time>2026-04-04T10:01:05.998Z</time></trkpt><trkpt lat="43.420074953059284" lon="10.410680198645546"><ele>98.0</ele><time>2026-04-04T10:01:06.998Z</time></trkpt><trkpt lat="43.41999992910101" lon="10.410499988522313"><ele>96.0</ele><time>2026-04-04T10:01:07.998Z</time></trkpt><trkpt lat="43.419930313762286" lon="10.41034459723072"><ele>94.0</ele><time>2026-04-04T10:01:08.998Z</time></trkpt><trkpt lat="43.41985882050519" lon="10.41019788693428"><ele>92.0</ele><time>2026-04-04T10:01:09.998Z</time></trkpt><trkpt lat="43.419785563517785" lon="10.41008408753159"><ele>90.0</ele><time>2026-04-04T10:01:10.998Z</time></trkpt><trkpt lat="43.41969499684416" lon="10.410001788560937"><ele>92.2</ele><time>2026-04-04T10:01:11.998Z</time></trkpt><trkpt lat="43.419598347977015" lon="10.409951153841646"><ele>94.4</ele><time>2026-04-04T10:01:12.998Z</time></trkpt><trkpt lat="43.41949520759995" lon="10.409934837570306"><ele>96.6</ele><time>2026-04-04T10:01:13.998Z</time></trkpt><trkpt lat="43.41937119974931" lon="10.409918654268923"><ele>98.8</ele><time>2026-04-04T10:01:14.998Z</time></trkpt><trkpt lat="43.41926022149923" lon="10.409925071595355"><ele>101.0</ele><time>2026-04-04T10:01:15.998Z</time></trkpt><trkpt lat="43.41919056752257" lon="10.409952818561992"><ele>101.0</ele><time>2026-04-04T10:01:16.998Z</time></trkpt><trkpt lat="43.419132644325316" lon="10.410051198064993"><ele>101.0</ele><time>2026-04-04T10:01:17.998Z</time></trkpt><trkpt lat="43.419095383723366" lon="10.410157626608523"><ele>101.0</ele><time>2026-04-04T10:01:19Z</time></trkpt><trkpt lat="43.41909048260912" lon="10.410304873726963"><ele>101.0</ele><time>2026-04-04T10:01:20Z</time></trkpt><trkpt lat="43.419059506715094" lon="10.410440900219111"><ele>101.0</ele><time>2026-04-04T10:01:21Z</time></trkpt><trkpt lat="43.41902355890573" lon="10.410588096685414"><ele>102.75</ele><time>2026-04-04T10:01:22Z</time></trkpt><trkpt lat="43.418973797010985" lon="10.410716816143507"><ele>104.5</ele><time>2026-04-04T10:01:23Z</time></trkpt><trkpt lat="43.41892546958971" lon="10.410806163328578"><ele>106.25</ele><time>2026-04-04T10:01:24Z</time></trkpt><trkpt lat="43.41882512471681" lon="10.410807913319033"><ele>108.0</ele><time>2026-04-04T10:01:26Z</time></trkpt><trkpt lat="43.418719980909515" lon="10.410626038777279"><ele>108.25</ele><time>2026-04-04T10:01:28Z</time></trkpt><trkpt lat="43.41861240662006" lon="10.410518822882619"><ele>108.5</ele><time>2026-04-04T10:01:29Z</time></trkpt><trkpt lat="43.4184818567243" lon="10.410434681805187"><ele>108.75</ele><time>2026-04-04T10:01:30Z</time></trkpt><trkpt lat="43.41834672662772" lon="10.410331599274278"><ele>109.0</ele><time>2026-04-04T10:01:31Z</time></trkpt><trkpt lat="43.41822918880471" lon="10.410220781767865"><ele>108.0</ele><time>2026-04-04T10:01:32Z</time></trkpt><trkpt lat="43.41814009081" lon="10.410099130573393"><ele>107.0</ele><time>2026-04-04T10:01:33Z</time></trkpt><trkpt lat="43.418059361270345" lon="10.409964364271547"><ele>106.0</ele><time>2026-04-04T10:01:34Z</time></trkpt><trkpt lat="43.418001446096" lon="10.409817357110342"><ele>105.0</ele><time>2026-04-04T10:01:35Z</time></trkpt><trkpt lat="43.41795814136068" lon="10.409656173220993"><ele>104.6</ele><time>2026-04-04T10:01:36Z</time></trkpt><trkpt lat="43.41791582254048" lon="10.409506388354407"><ele>104.2</ele><time>2026-04-04T10:01:37Z</time></trkpt><trkpt lat="43.41785503289179" lon="10.409379803105235"><ele>103.80000000000001</ele><time>2026-04-04T10:01:38Z</time></trkpt><trkpt lat="43.417771330638544" lon="10.409285356062059"><ele>103.4</ele><time>2026-04-04T10:01:39Z</time></trkpt><trkpt lat="43.417686482151154" lon="10.409233870297708"><ele>103.0</ele><time>2026-04-04T10:01:40Z</time></trkpt><trkpt lat="43.417623630541485" lon="10.409226218515112"><ele>103.0</ele><time>2026-04-04T10:01:41Z</time></trkpt><trkpt lat="43.417559987163195" lon="10.409276524329425"><ele>103.0</ele><time>2026-04-04T10:01:42Z</time></trkpt><trkpt lat="43.41744207653646" lon="10.40924947032126"><ele>103.0</ele><time>2026-04-04T10:01:44Z</time></trkpt><trkpt lat="43.41733627407824" lon="10.409223799799255"><ele>103.0</ele><time>2026-04-04T10:01:45Z</time></trkpt><trkpt lat="43.41720337545137" lon="10.409190166627857"><ele>103.0</ele><time>2026-04-04T10:01:46Z</time></trkpt><trkpt lat="43.41708229454543" lon="10.409152545320119"><ele>102.4</ele><time>2026-04-04T10:01:47Z</time></trkpt><trkpt lat="43.416979337201745" lon="10.409114505654147"><ele>101.80000000000001</ele><time>2026-04-04T10:01:48Z</time></trkpt><trkpt lat="43.416892090572404" lon="10.409070042571745"><ele>101.2</ele><time>2026-04-04T10:01:49Z</time></trkpt><trkpt lat="43.41680360965231" lon="10.409038281017837"><ele>100.6</ele><time>2026-04-04T10:01:50Z</time></trkpt><trkpt lat="43.41670202758339" lon="10.409036855937293"><ele>100.0</ele><time>2026-04-04T10:01:51Z</time></trkpt><trkpt lat="43.416590566232465" lon="10.40906486357572"><ele>100.0</ele><time>2026-04-04T10:01:52Z</time></trkpt><trkpt lat="43.41647935743675" lon="10.409090590275719"><ele>100.0</ele><time>2026-04-04T10:01:53Z</time></trkpt><trkpt lat="43.41639010804052" lon="10.409098120182165"><ele>100.0</ele><time>2026-04-04T10:01:54Z</time></trkpt><trkpt lat="43.41631601961201" lon="10.409102486210571"><ele>100.0</ele><time>2026-04-04T10:01:56Z</time></trkpt><trkpt lat="43.41623042450576" lon="10.409101833438957"><ele>100.0</ele><time>2026-04-04T10:01:59Z</time></trkpt><trkpt lat="43.416131568829904" lon="10.409097354964112"><ele>99.16666666666667</ele><time>2026-04-04T10:02:01Z</time></trkpt><trkpt lat="43.416042357092785" lon="10.409119730429646"><ele>98.33333333333334</ele><time>2026-04-04T10:02:02Z</time></trkpt><trkpt lat="43.41594587203162" lon="10.409153547769831"><ele>97.5</ele><time>2026-04-04T10:02:03Z</time></trkpt><trkpt lat="43.4158510606356" lon="10.409164098340254"><ele>96.66666666666667</ele><time>2026-04-04T10:02:04Z</time></trkpt><trkpt lat="43.41576843958785" lon="10.409167864803871"><ele>95.83333333333334</ele><time>2026-04-04T10:02:05Z</time></trkpt><trkpt lat="43.415702425011716" lon="10.40913822598369"><ele>95.0</ele><time>2026-04-04T10:02:06Z</time></trkpt><trkpt lat="43.41559876796294" lon="10.409110679780314"><ele>93.5</ele><time>2026-04-04T10:02:07Z</time></trkpt><trkpt lat="43.41548308389421" lon="10.409109860418052"><ele>92.0</ele><time>2026-04-04T10:02:08Z</time></trkpt><trkpt lat="43.41539542351936" lon="10.409084669014078"><ele>90.5</ele><time>2026-04-04T10:02:09Z</time></trkpt><trkpt lat="43.415319775712824" lon="10.409096020212163"><ele>89.0</ele><time>2026-04-04T10:02:10Z</time></trkpt><trkpt lat="43.415230670833886" lon="10.40910263704983"><ele>87.5</ele><time>2026-04-04T10:02:11Z</time></trkpt><trkpt lat="43.41515471424188" lon="10.409077597159387"><ele>86.0</ele><time>2026-04-04T10:02:12Z</time></trkpt><trkpt lat="43.415074109211574" lon="10.409055978421835"><ele>86.0</ele><time>2026-04-04T10:02:13Z</time></trkpt><trkpt lat="43.41494394010031" lon="10.40897298050151"><ele>86.0</ele><time>2026-04-04T10:02:14Z</time></trkpt><trkpt lat="43.41478023503411" lon="10.408910877887656"><ele>86.0</ele><time>2026-04-04T10:02:14.999Z</time></trkpt><trkpt lat="43.41464762319549" lon="10.408870179615393"><ele>86.0</ele><time>2026-04-04T10:02:15.999Z</time></trkpt><trkpt lat="43.414541739916416" lon="10.408837598971754"><ele>85.19999999999999</ele><time>2026-04-04T10:02:16.999Z</time></trkpt><trkpt lat="43.41444665652866" lon="10.408793082908218"><ele>84.39999999999999</ele><time>2026-04-04T10:02:17.999Z</time></trkpt><trkpt lat="43.414359229614334" lon="10.40875892131514"><ele>83.6</ele><time>2026-04-04T10:02:18.999Z</time></trkpt><trkpt lat="43.41428917659535" lon="10.408674304537579"><ele>82.8</ele><time>2026-04-04T10:02:19.999Z</time></trkpt><trkpt lat="43.414242571799235" lon="10.408571064573009"><ele>82.0</ele><time>2026-04-04T10:02:20.999Z</time></trkpt><trkpt lat="43.41418017764746" lon="10.408472183093314"><ele>82.0</ele><time>2026-04-04T10:02:21.999Z</time></trkpt><trkpt lat="43.41413293143042" lon="10.408363319801264"><ele>82.0</ele><time>2026-04-04T10:02:22.999Z</time></trkpt><trkpt lat="43.41407681722702" lon="10.408248581839166"><ele>82.0</ele><time>2026-04-04T10:02:23.999Z</time></trkpt><trkpt lat="43.41398737848595" lon="10.408145953743057"><ele>82.0</ele><time>2026-04-04T10:02:24.999Z</time></trkpt><trkpt lat="43.413906614119654" lon="10.408016974741505"><ele>82.0</ele><time>2026-04-04T10:02:25.999Z</time></trkpt><trkpt lat="43.41383248752739" lon="10.407875634913198"><ele>80.6</ele><time>2026-04-04T10:02:26.999Z</time></trkpt><trkpt lat="43.41381639733174" lon="10.407707017265123"><ele>79.19999999999999</ele><time>2026-04-04T10:02:27.999Z</time></trkpt><trkpt lat="43.41376323820444" lon="10.407590510193858"><ele>77.8</ele><time>2026-04-04T10:02:28.999Z</time></trkpt><trkpt lat="43.413691107602745" lon="10.407471241470132"><ele>76.4</ele><time>2026-04-04T10:02:29.999Z</time></trkpt><trkpt lat="43.41361254055669" lon="10.407399028993643"><ele>75.0</ele><time>2026-04-04T10:02:30.999Z</time></trkpt><trkpt lat="43.413538723688475" lon="10.407343813302212"><ele>75.0</ele><time>2026-04-04T10:02:31.999Z</time></trkpt><trkpt lat="43.413438373578934" lon="10.407312257477649"><ele>75.0</ele><time>2026-04-04T10:02:32.999Z</time></trkpt><trkpt lat="43.41335567253473" lon="10.407290455120851"><ele>75.0</ele><time>2026-04-04T10:02:33.999Z</time></trkpt><trkpt lat="43.413272083057834" lon="10.407285375333755"><ele>75.0</ele><time>2026-04-04T10:02:34.999Z</time></trkpt><trkpt lat="43.41320162740368" lon="10.407356512683352"><ele>75.0</ele><time>2026-04-04T10:02:35.999Z</time></trkpt><trkpt lat="43.4131217309172" lon="10.40744011045246"><ele>75.0</ele><time>2026-04-04T10:02:36.999Z</time></trkpt><trkpt lat="43.413024990821725" lon="10.407493927660898"><ele>75.0</ele><time>2026-04-04T10:02:37.999Z</time></trkpt><trkpt lat="43.41293661045892" lon="10.407510502380399"><ele>75.0</ele><time>2026-04-04T10:02:38.999Z</time></trkpt><trkpt lat="43.41287038209498" lon="10.40749265745133"><ele>75.0</ele><time>2026-04-04T10:02:39.999Z</time></trkpt><trkpt lat="43.412801526257766" lon="10.407424125825465"><ele>75.0</ele><time>2026-04-04T10:02:40.999Z</time></trkpt><trkpt lat="43.412727041055895" lon="10.407323872857482"><ele>73.25</ele><time>2026-04-04T10:02:41.999Z</time></trkpt><trkpt lat="43.41261495584201" lon="10.407174597955411"><ele>71.5</ele><time>2026-04-04T10:02:42.999Z</time></trkpt><trkpt lat="43.412508358085326" lon="10.40703742721945"><ele>69.75</ele><time>2026-04-04T10:02:43.999Z</time></trkpt><trkpt lat="43.412426733424745" lon="10.406924321065228"><ele>68.0</ele><time>2026-04-04T10:02:44.999Z</time></trkpt><trkpt lat="43.4123592914729" lon="10.406830095259703"><ele>68.0</ele><time>2026-04-04T10:02:45.999Z</time></trkpt><trkpt lat="43.4122880679448" lon="10.40673098715249"><ele>68.0</ele><time>2026-04-04T10:02:46.999Z</time></trkpt><trkpt lat="43.412196731807654" lon="10.406613464850858"><ele>68.0</ele><time>2026-04-04T10:02:47.999Z</time></trkpt><trkpt lat="43.41209362820963" lon="10.406487190016694"><ele>68.0</ele><time>2026-04-04T10:02:48.999Z</time></trkpt><trkpt lat="43.4119953750178" lon="10.406372490078539"><ele>65.8</ele><time>2026-04-04T10:02:49.999Z</time></trkpt><trkpt lat="43.411910495682044" lon="10.40627032564104"><ele>63.599999999999994</ele><time>2026-04-04T10:02:50.999Z</time></trkpt><trkpt lat="43.41183813458891" lon="10.406168884173209"><ele>61.400000000000006</ele><time>2026-04-04T10:02:51.999Z</time></trkpt><trkpt lat="43.4117643806867" lon="10.406062886390238"><ele>59.2</ele><time>2026-04-04T10:02:52.999Z</time></trkpt><trkpt lat="43.411691455189015" lon="10.405969862418756"><ele>57.0</ele><time>2026-04-04T10:02:53.999Z</time></trkpt><trkpt lat="43.41162103304111" lon="10.405882984276046"><ele>57.0</ele><time>2026-04-04T10:02:54.999Z</time></trkpt><trkpt lat="43.41155542718473" lon="10.405802048200744"><ele>57.0</ele><time>2026-04-04T10:02:55.999Z</time></trkpt><trkpt lat="43.41149196844876" lon="10.405723399966508"><ele>57.0</ele><time>2026-04-04T10:02:56.999Z</time></trkpt><trkpt lat="43.411436155212094" lon="10.40565786621777"><ele>57.0</ele><time>2026-04-04T10:02:57.999Z</time></trkpt><trkpt lat="43.41137730081326" lon="10.405598587418782"><ele>57.0</ele><time>2026-04-04T10:02:58.999Z</time></trkpt><trkpt lat="43.41131907488421" lon="10.405544402648545"><ele>57.0</ele><time>2026-04-04T10:02:59.999Z</time></trkpt><trkpt lat="43.4112703324923" lon="10.405486827515391"><ele>54.666666666666664</ele><time>2026-04-04T10:03:00.999Z</time></trkpt><trkpt lat="43.41118929470393" lon="10.40537481983327"><ele>52.333333333333336</ele><time>2026-04-04T10:03:02.998Z</time></trkpt><trkpt lat="43.41120308380132" lon="10.405285897765046"><ele>50.0</ele><time>2026-04-04T10:03:03.998Z</time></trkpt><trkpt lat="43.41127141516175" lon="10.405227902652083"><ele>47.66666666666667</ele><time>2026-04-04T10:03:04.998Z</time></trkpt><trkpt lat="43.411366846831406" lon="10.405221516946632"><ele>45.333333333333336</ele><time>2026-04-04T10:03:05.998Z</time></trkpt><trkpt lat="43.41145323117029" lon="10.405208460073458"><ele>43.0</ele><time>2026-04-04T10:03:06.998Z</time></trkpt><trkpt lat="43.411525648205334" lon="10.40519843955833"><ele>43.0</ele><time>2026-04-04T10:03:07.998Z</time></trkpt><trkpt lat="43.41158880441969" lon="10.405186192831119"><ele>43.0</ele><time>2026-04-04T10:03:08.998Z</time></trkpt><trkpt lat="43.41165095738033" lon="10.405029108865087"><ele>43.0</ele><time>2026-04-04T10:03:10.998Z</time></trkpt><trkpt lat="43.41159614164231" lon="10.404914433946066"><ele>43.0</ele><time>2026-04-04T10:03:11.998Z</time></trkpt><trkpt lat="43.411500143793404" lon="10.404847198341711"><ele>43.0</ele><time>2026-04-04T10:03:12.998Z</time></trkpt><trkpt lat="43.41136808941285" lon="10.404865415995161"><ele>42.8</ele><time>2026-04-04T10:03:13.998Z</time></trkpt><trkpt lat="43.41126508295084" lon="10.404860986634668"><ele>42.599999999999994</ele><time>2026-04-04T10:03:14.998Z</time></trkpt><trkpt lat="43.41118430323801" lon="10.404849046186929"><ele>42.400000000000006</ele><time>2026-04-04T10:03:15.998Z</time></trkpt><trkpt lat="43.41110934308889" lon="10.404836922307608"><ele>42.2</ele><time>2026-04-04T10:03:16.998Z</time></trkpt><trkpt lat="43.41102973787734" lon="10.404769393640018"><ele>42.0</ele><time>2026-04-04T10:03:18.998Z</time></trkpt><trkpt lat="43.41104845236464" lon="10.404616373748778"><ele>38.25</ele><time>2026-04-04T10:03:20.998Z</time></trkpt><trkpt lat="43.41118026143054" lon="10.404477959263629"><ele>34.5</ele><time>2026-04-04T10:03:22.998Z</time></trkpt><trkpt lat="43.41128785344458" lon="10.404389593354198"><ele>30.75</ele><time>2026-04-04T10:03:23.998Z</time></trkpt><trkpt lat="43.411387969180765" lon="10.40435568390844"><ele>27.0</ele><time>2026-04-04T10:03:25Z</time></trkpt><trkpt lat="43.411468740497206" lon="10.404337344467185"><ele>27.0</ele><time>2026-04-04T10:03:26Z</time></trkpt><trkpt lat="43.41157024681691" lon="10.404296010322188"><ele>27.0</ele><time>2026-04-04T10:03:27Z</time></trkpt><trkpt lat="43.411709874888615" lon="10.404319747016595"><ele>27.0</ele><time>2026-04-04T10:03:28Z</time></trkpt><trkpt lat="43.411821936719825" lon="10.404335553622055"><ele>27.0</ele><time>2026-04-04T10:03:29Z</time></trkpt><trkpt lat="43.411912681701395" lon="10.404336333741533"><ele>27.0</ele><time>2026-04-04T10:03:30Z</time></trkpt><trkpt lat="43.411985717238494" lon="10.404342533413574"><ele>27.0</ele><time>2026-04-04T10:03:31Z</time></trkpt><trkpt lat="43.41205039268448" lon="10.404311494857666"><ele>27.0</ele><time>2026-04-04T10:03:32Z</time></trkpt><trkpt lat="43.41211395072592" lon="10.404236610437563"><ele>27.0</ele><time>2026-04-04T10:03:34Z</time></trkpt></trkseg></trk></gpx>